<?xml version="1.0" encoding="UTF-8" standalone="no" ?>
<gpx xmlns="http://www.topografix.com/GPX/1/1" xmlns:xsi="http://www.w3.org/2001/XMLSchema-instance" xsi:schemaLocation="http://www.topografix.com/GPX/1/1 http://www.topografix.com/GPX/1/1/gpx.xsd" version="1.1" creator="VisuGPX - https://www.visugpx.com">
  <metadata>
    <name>Slip2Bain Christmas Tour Epilogue</name>
    <desc><![CDATA[[url]http://baptiste.delage.free.fr/Slip2Bain_album/index_slip2bain.html[/url]
A/R Nontron <=> Consulat de Groland]]></desc>
  </metadata>
  <trk>
    <name><![CDATA[ACTIVE LOG 004]]></name>
    <trkseg>
      <trkpt lat="45.54545" lon="0.66648">
        <ele>266.42248535156</ele>
        <time>2010-12-27T10:27:29Z</time>
      </trkpt>
      <trkpt lat="45.54546" lon="0.66652">
        <ele>273.15185546875</ele>
        <time>2010-12-27T10:27:52Z</time>
      </trkpt>
      <trkpt lat="45.54543" lon="0.66641">
        <ele>278.91967773438</ele>
        <time>2010-12-27T10:28:19Z</time>
      </trkpt>
      <trkpt lat="45.54542" lon="0.66638">
        <ele>283.24560546875</ele>
        <time>2010-12-27T10:28:41Z</time>
      </trkpt>
      <trkpt lat="45.54542" lon="0.66638">
        <ele>283.72619628906</ele>
        <time>2010-12-27T10:29:45Z</time>
      </trkpt>
      <trkpt lat="45.54544" lon="0.66623">
        <ele>285.64880371094</ele>
        <time>2010-12-27T10:29:52Z</time>
      </trkpt>
      <trkpt lat="45.54553" lon="0.66625">
        <ele>286.61022949219</ele>
        <time>2010-12-27T10:29:57Z</time>
      </trkpt>
      <trkpt lat="45.54592" lon="0.66665">
        <ele>288.05224609375</ele>
        <time>2010-12-27T10:30:12Z</time>
      </trkpt>
      <trkpt lat="45.54612" lon="0.66703">
        <ele>289.97485351562</ele>
        <time>2010-12-27T10:30:21Z</time>
      </trkpt>
      <trkpt lat="45.54644" lon="0.66751">
        <ele>291.41674804688</ele>
        <time>2010-12-27T10:30:31Z</time>
      </trkpt>
      <trkpt lat="45.54687" lon="0.66836">
        <ele>294.78137207031</ele>
        <time>2010-12-27T10:30:46Z</time>
      </trkpt>
      <trkpt lat="45.54741" lon="0.6695">
        <ele>298.14611816406</ele>
        <time>2010-12-27T10:31:05Z</time>
      </trkpt>
      <trkpt lat="45.54769" lon="0.66992">
        <ele>299.58801269531</ele>
        <time>2010-12-27T10:31:13Z</time>
      </trkpt>
      <trkpt lat="45.54816" lon="0.67028">
        <ele>295.74267578125</ele>
        <time>2010-12-27T10:31:21Z</time>
      </trkpt>
      <trkpt lat="45.54838" lon="0.67048">
        <ele>294.30078125</ele>
        <time>2010-12-27T10:31:24Z</time>
      </trkpt>
      <trkpt lat="45.54873" lon="0.67099">
        <ele>294.30078125</ele>
        <time>2010-12-27T10:31:30Z</time>
      </trkpt>
      <trkpt lat="45.54889" lon="0.67122">
        <ele>294.78137207031</ele>
        <time>2010-12-27T10:31:33Z</time>
      </trkpt>
      <trkpt lat="45.54915" lon="0.67146">
        <ele>294.30078125</ele>
        <time>2010-12-27T10:31:37Z</time>
      </trkpt>
      <trkpt lat="45.54947" lon="0.67161">
        <ele>293.82006835938</ele>
        <time>2010-12-27T10:31:41Z</time>
      </trkpt>
      <trkpt lat="45.54988" lon="0.67165">
        <ele>292.85876464844</ele>
        <time>2010-12-27T10:31:46Z</time>
      </trkpt>
      <trkpt lat="45.55005" lon="0.67178">
        <ele>289.97485351562</ele>
        <time>2010-12-27T10:31:50Z</time>
      </trkpt>
      <trkpt lat="45.55005" lon="0.67182">
        <ele>289.494140625</ele>
        <time>2010-12-27T10:32:05Z</time>
      </trkpt>
      <trkpt lat="45.55005" lon="0.67185">
        <ele>289.97485351562</ele>
        <time>2010-12-27T10:32:17Z</time>
      </trkpt>
      <trkpt lat="45.55013" lon="0.67191">
        <ele>289.97485351562</ele>
        <time>2010-12-27T10:32:20Z</time>
      </trkpt>
      <trkpt lat="45.55074" lon="0.6721">
        <ele>290.45556640625</ele>
        <time>2010-12-27T10:32:30Z</time>
      </trkpt>
      <trkpt lat="45.55175" lon="0.67283">
        <ele>288.05224609375</ele>
        <time>2010-12-27T10:32:43Z</time>
      </trkpt>
      <trkpt lat="45.55274" lon="0.67345">
        <ele>288.53295898438</ele>
        <time>2010-12-27T10:32:54Z</time>
      </trkpt>
      <trkpt lat="45.55325" lon="0.67358">
        <ele>291.41674804688</ele>
        <time>2010-12-27T10:32:59Z</time>
      </trkpt>
      <trkpt lat="45.55389" lon="0.67368">
        <ele>294.30078125</ele>
        <time>2010-12-27T10:33:05Z</time>
      </trkpt>
      <trkpt lat="45.55466" lon="0.67376">
        <ele>288.05224609375</ele>
        <time>2010-12-27T10:33:14Z</time>
      </trkpt>
      <trkpt lat="45.55512" lon="0.67394">
        <ele>286.61022949219</ele>
        <time>2010-12-27T10:33:19Z</time>
      </trkpt>
      <trkpt lat="45.55553" lon="0.67475">
        <ele>276.03564453125</ele>
        <time>2010-12-27T10:33:27Z</time>
      </trkpt>
      <trkpt lat="45.55606" lon="0.67728">
        <ele>268.82580566406</ele>
        <time>2010-12-27T10:33:45Z</time>
      </trkpt>
      <trkpt lat="45.55651" lon="0.67932">
        <ele>273.63244628906</ele>
        <time>2010-12-27T10:34:01Z</time>
      </trkpt>
      <trkpt lat="45.55686" lon="0.68093">
        <ele>264.49987792969</ele>
        <time>2010-12-27T10:34:15Z</time>
      </trkpt>
      <trkpt lat="45.55745" lon="0.68248">
        <ele>258.73193359375</ele>
        <time>2010-12-27T10:34:28Z</time>
      </trkpt>
      <trkpt lat="45.55781" lon="0.68421">
        <ele>253.92541503906</ele>
        <time>2010-12-27T10:34:40Z</time>
      </trkpt>
      <trkpt lat="45.55815" lon="0.68593">
        <ele>247.6767578125</ele>
        <time>2010-12-27T10:34:51Z</time>
      </trkpt>
      <trkpt lat="45.55881" lon="0.6869">
        <ele>244.79284667969</ele>
        <time>2010-12-27T10:34:59Z</time>
      </trkpt>
      <trkpt lat="45.55902" lon="0.68704">
        <ele>244.31225585938</ele>
        <time>2010-12-27T10:35:01Z</time>
      </trkpt>
      <trkpt lat="45.56069" lon="0.68791">
        <ele>244.79284667969</ele>
        <time>2010-12-27T10:35:15Z</time>
      </trkpt>
      <trkpt lat="45.561" lon="0.68821">
        <ele>233.25708007812</ele>
        <time>2010-12-27T10:35:19Z</time>
      </trkpt>
      <trkpt lat="45.56132" lon="0.68875">
        <ele>234.21838378906</ele>
        <time>2010-12-27T10:35:24Z</time>
      </trkpt>
      <trkpt lat="45.56143" lon="0.68918">
        <ele>235.66027832031</ele>
        <time>2010-12-27T10:35:28Z</time>
      </trkpt>
      <trkpt lat="45.56151" lon="0.69047">
        <ele>239.02490234375</ele>
        <time>2010-12-27T10:35:44Z</time>
      </trkpt>
      <trkpt lat="45.56152" lon="0.69061">
        <ele>239.50549316406</ele>
        <time>2010-12-27T10:35:46Z</time>
      </trkpt>
      <trkpt lat="45.56155" lon="0.69124">
        <ele>242.3896484375</ele>
        <time>2010-12-27T10:35:55Z</time>
      </trkpt>
      <trkpt lat="45.5616" lon="0.69156">
        <ele>242.87023925781</ele>
        <time>2010-12-27T10:36:00Z</time>
      </trkpt>
      <trkpt lat="45.56194" lon="0.69275">
        <ele>247.19604492188</ele>
        <time>2010-12-27T10:36:19Z</time>
      </trkpt>
      <trkpt lat="45.56202" lon="0.69291">
        <ele>247.6767578125</ele>
        <time>2010-12-27T10:36:22Z</time>
      </trkpt>
      <trkpt lat="45.56268" lon="0.69349">
        <ele>252.4833984375</ele>
        <time>2010-12-27T10:36:39Z</time>
      </trkpt>
      <trkpt lat="45.5634" lon="0.69373">
        <ele>256.80932617188</ele>
        <time>2010-12-27T10:36:54Z</time>
      </trkpt>
      <trkpt lat="45.56427" lon="0.69389">
        <ele>262.09655761719</ele>
        <time>2010-12-27T10:37:12Z</time>
      </trkpt>
      <trkpt lat="45.56534" lon="0.6941">
        <ele>267.86450195312</ele>
        <time>2010-12-27T10:37:33Z</time>
      </trkpt>
      <trkpt lat="45.56667" lon="0.69436">
        <ele>268.82580566406</ele>
        <time>2010-12-27T10:37:52Z</time>
      </trkpt>
      <trkpt lat="45.56797" lon="0.69488">
        <ele>267.86450195312</ele>
        <time>2010-12-27T10:38:09Z</time>
      </trkpt>
      <trkpt lat="45.56883" lon="0.69587">
        <ele>266.42248535156</ele>
        <time>2010-12-27T10:38:24Z</time>
      </trkpt>
      <trkpt lat="45.56921" lon="0.69643">
        <ele>265.46130371094</ele>
        <time>2010-12-27T10:38:34Z</time>
      </trkpt>
      <trkpt lat="45.56927" lon="0.69659">
        <ele>264.98059082031</ele>
        <time>2010-12-27T10:38:42Z</time>
      </trkpt>
      <trkpt lat="45.56941" lon="0.6967">
        <ele>265.46130371094</ele>
        <time>2010-12-27T10:40:05Z</time>
      </trkpt>
      <trkpt lat="45.56996" lon="0.69743">
        <ele>266.42248535156</ele>
        <time>2010-12-27T10:40:18Z</time>
      </trkpt>
      <trkpt lat="45.5709" lon="0.69871">
        <ele>267.38391113281</ele>
        <time>2010-12-27T10:40:36Z</time>
      </trkpt>
      <trkpt lat="45.57231" lon="0.70062">
        <ele>270.74841308594</ele>
        <time>2010-12-27T10:41:03Z</time>
      </trkpt>
      <trkpt lat="45.57345" lon="0.7018">
        <ele>271.22912597656</ele>
        <time>2010-12-27T10:41:22Z</time>
      </trkpt>
      <trkpt lat="45.57427" lon="0.70183">
        <ele>271.22912597656</ele>
        <time>2010-12-27T10:41:32Z</time>
      </trkpt>
      <trkpt lat="45.57545" lon="0.7012">
        <ele>271.22912597656</ele>
        <time>2010-12-27T10:41:46Z</time>
      </trkpt>
      <trkpt lat="45.5757" lon="0.70104">
        <ele>270.26770019531</ele>
        <time>2010-12-27T10:41:49Z</time>
      </trkpt>
      <trkpt lat="45.57697" lon="0.70029">
        <ele>269.30651855469</ele>
        <time>2010-12-27T10:42:04Z</time>
      </trkpt>
      <trkpt lat="45.57811" lon="0.69996">
        <ele>268.82580566406</ele>
        <time>2010-12-27T10:42:17Z</time>
      </trkpt>
      <trkpt lat="45.57839" lon="0.69999">
        <ele>269.30651855469</ele>
        <time>2010-12-27T10:42:20Z</time>
      </trkpt>
      <trkpt lat="45.57992" lon="0.70061">
        <ele>267.86450195312</ele>
        <time>2010-12-27T10:42:38Z</time>
      </trkpt>
      <trkpt lat="45.58122" lon="0.70143">
        <ele>267.86450195312</ele>
        <time>2010-12-27T10:42:54Z</time>
      </trkpt>
      <trkpt lat="45.58161" lon="0.70207">
        <ele>266.42248535156</ele>
        <time>2010-12-27T10:43:00Z</time>
      </trkpt>
      <trkpt lat="45.58238" lon="0.70259">
        <ele>262.5771484375</ele>
        <time>2010-12-27T10:43:08Z</time>
      </trkpt>
      <trkpt lat="45.58368" lon="0.70246">
        <ele>261.13525390625</ele>
        <time>2010-12-27T10:43:20Z</time>
      </trkpt>
      <trkpt lat="45.58546" lon="0.70187">
        <ele>260.17395019531</ele>
        <time>2010-12-27T10:43:39Z</time>
      </trkpt>
      <trkpt lat="45.58654" lon="0.70107">
        <ele>260.17395019531</ele>
        <time>2010-12-27T10:43:52Z</time>
      </trkpt>
      <trkpt lat="45.58759" lon="0.70029">
        <ele>264.98059082031</ele>
        <time>2010-12-27T10:44:07Z</time>
      </trkpt>
      <trkpt lat="45.58776" lon="0.70017">
        <ele>265.46130371094</ele>
        <time>2010-12-27T10:44:10Z</time>
      </trkpt>
      <trkpt lat="45.58796" lon="0.70011">
        <ele>266.42248535156</ele>
        <time>2010-12-27T10:44:13Z</time>
      </trkpt>
      <trkpt lat="45.58817" lon="0.70011">
        <ele>266.90319824219</ele>
        <time>2010-12-27T10:44:17Z</time>
      </trkpt>
      <trkpt lat="45.58905" lon="0.70056">
        <ele>270.74841308594</ele>
        <time>2010-12-27T10:44:35Z</time>
      </trkpt>
      <trkpt lat="45.58924" lon="0.70067">
        <ele>271.70971679688</ele>
        <time>2010-12-27T10:44:39Z</time>
      </trkpt>
      <trkpt lat="45.58977" lon="0.70057">
        <ele>273.15185546875</ele>
        <time>2010-12-27T10:44:49Z</time>
      </trkpt>
      <trkpt lat="45.59027" lon="0.70013">
        <ele>275.07446289062</ele>
        <time>2010-12-27T10:44:59Z</time>
      </trkpt>
      <trkpt lat="45.5905" lon="0.70004">
        <ele>275.55505371094</ele>
        <time>2010-12-27T10:45:03Z</time>
      </trkpt>
      <trkpt lat="45.59092" lon="0.70014">
        <ele>276.9970703125</ele>
        <time>2010-12-27T10:45:10Z</time>
      </trkpt>
      <trkpt lat="45.59155" lon="0.70055">
        <ele>278.43896484375</ele>
        <time>2010-12-27T10:45:21Z</time>
      </trkpt>
      <trkpt lat="45.59223" lon="0.70116">
        <ele>280.36169433594</ele>
        <time>2010-12-27T10:45:33Z</time>
      </trkpt>
      <trkpt lat="45.59319" lon="0.70187">
        <ele>283.24560546875</ele>
        <time>2010-12-27T10:45:49Z</time>
      </trkpt>
      <trkpt lat="45.59383" lon="0.70249">
        <ele>285.64880371094</ele>
        <time>2010-12-27T10:46:01Z</time>
      </trkpt>
      <trkpt lat="45.59447" lon="0.70306">
        <ele>288.05224609375</ele>
        <time>2010-12-27T10:46:13Z</time>
      </trkpt>
      <trkpt lat="45.59573" lon="0.70401">
        <ele>285.16821289062</ele>
        <time>2010-12-27T10:46:30Z</time>
      </trkpt>
      <trkpt lat="45.59721" lon="0.70484">
        <ele>282.76501464844</ele>
        <time>2010-12-27T10:46:47Z</time>
      </trkpt>
      <trkpt lat="45.59809" lon="0.70482">
        <ele>280.36169433594</ele>
        <time>2010-12-27T10:46:56Z</time>
      </trkpt>
      <trkpt lat="45.60076" lon="0.70404">
        <ele>274.59375</ele>
        <time>2010-12-27T10:47:23Z</time>
      </trkpt>
      <trkpt lat="45.60262" lon="0.70378">
        <ele>272.1904296875</ele>
        <time>2010-12-27T10:47:41Z</time>
      </trkpt>
      <trkpt lat="45.60404" lon="0.70411">
        <ele>273.63244628906</ele>
        <time>2010-12-27T10:47:56Z</time>
      </trkpt>
      <trkpt lat="45.60564" lon="0.70453">
        <ele>269.30651855469</ele>
        <time>2010-12-27T10:48:14Z</time>
      </trkpt>
      <trkpt lat="45.60717" lon="0.7049">
        <ele>270.74841308594</ele>
        <time>2010-12-27T10:48:31Z</time>
      </trkpt>
      <trkpt lat="45.60807" lon="0.70511">
        <ele>274.59375</ele>
        <time>2010-12-27T10:48:44Z</time>
      </trkpt>
      <trkpt lat="45.6091" lon="0.70528">
        <ele>275.55505371094</ele>
        <time>2010-12-27T10:48:59Z</time>
      </trkpt>
      <trkpt lat="45.60947" lon="0.70518">
        <ele>276.03564453125</ele>
        <time>2010-12-27T10:49:04Z</time>
      </trkpt>
      <trkpt lat="45.61052" lon="0.70445">
        <ele>277.95825195312</ele>
        <time>2010-12-27T10:49:19Z</time>
      </trkpt>
      <trkpt lat="45.61163" lon="0.70428">
        <ele>275.55505371094</ele>
        <time>2010-12-27T10:49:32Z</time>
      </trkpt>
      <trkpt lat="45.61303" lon="0.70405">
        <ele>273.15185546875</ele>
        <time>2010-12-27T10:49:47Z</time>
      </trkpt>
      <trkpt lat="45.61403" lon="0.70313">
        <ele>271.22912597656</ele>
        <time>2010-12-27T10:49:59Z</time>
      </trkpt>
      <trkpt lat="45.61477" lon="0.7024">
        <ele>269.30651855469</ele>
        <time>2010-12-27T10:50:08Z</time>
      </trkpt>
      <trkpt lat="45.61496" lon="0.7023">
        <ele>269.30651855469</ele>
        <time>2010-12-27T10:50:10Z</time>
      </trkpt>
      <trkpt lat="45.61662" lon="0.70204">
        <ele>267.38391113281</ele>
        <time>2010-12-27T10:50:27Z</time>
      </trkpt>
      <trkpt lat="45.6177" lon="0.70215">
        <ele>267.86450195312</ele>
        <time>2010-12-27T10:50:40Z</time>
      </trkpt>
      <trkpt lat="45.61902" lon="0.70208">
        <ele>269.787109375</ele>
        <time>2010-12-27T10:50:56Z</time>
      </trkpt>
      <trkpt lat="45.62083" lon="0.70178">
        <ele>270.26770019531</ele>
        <time>2010-12-27T10:51:19Z</time>
      </trkpt>
      <trkpt lat="45.62239" lon="0.70146">
        <ele>273.15185546875</ele>
        <time>2010-12-27T10:51:40Z</time>
      </trkpt>
      <trkpt lat="45.62342" lon="0.70126">
        <ele>276.9970703125</ele>
        <time>2010-12-27T10:51:56Z</time>
      </trkpt>
      <trkpt lat="45.62479" lon="0.70111">
        <ele>278.43896484375</ele>
        <time>2010-12-27T10:52:15Z</time>
      </trkpt>
      <trkpt lat="45.62508" lon="0.70123">
        <ele>278.91967773438</ele>
        <time>2010-12-27T10:52:19Z</time>
      </trkpt>
      <trkpt lat="45.6262" lon="0.7021">
        <ele>276.51635742188</ele>
        <time>2010-12-27T10:52:35Z</time>
      </trkpt>
      <trkpt lat="45.62808" lon="0.70357">
        <ele>271.70971679688</ele>
        <time>2010-12-27T10:52:58Z</time>
      </trkpt>
      <trkpt lat="45.62933" lon="0.70419">
        <ele>269.787109375</ele>
        <time>2010-12-27T10:53:11Z</time>
      </trkpt>
      <trkpt lat="45.63096" lon="0.70437">
        <ele>268.34509277344</ele>
        <time>2010-12-27T10:53:28Z</time>
      </trkpt>
      <trkpt lat="45.63106" lon="0.7044">
        <ele>267.86450195312</ele>
        <time>2010-12-27T10:53:29Z</time>
      </trkpt>
      <trkpt lat="45.6325" lon="0.70533">
        <ele>263.53857421875</ele>
        <time>2010-12-27T10:53:44Z</time>
      </trkpt>
      <trkpt lat="45.63484" lon="0.70663">
        <ele>256.80932617188</ele>
        <time>2010-12-27T10:54:07Z</time>
      </trkpt>
      <trkpt lat="45.6375" lon="0.70812">
        <ele>252.00280761719</ele>
        <time>2010-12-27T10:54:34Z</time>
      </trkpt>
      <trkpt lat="45.63874" lon="0.70883">
        <ele>250.08020019531</ele>
        <time>2010-12-27T10:54:47Z</time>
      </trkpt>
      <trkpt lat="45.63949" lon="0.70978">
        <ele>248.15759277344</ele>
        <time>2010-12-27T10:54:57Z</time>
      </trkpt>
      <trkpt lat="45.63976" lon="0.71125">
        <ele>246.71545410156</ele>
        <time>2010-12-27T10:55:08Z</time>
      </trkpt>
      <trkpt lat="45.63969" lon="0.71395">
        <ele>243.83154296875</ele>
        <time>2010-12-27T10:55:28Z</time>
      </trkpt>
      <trkpt lat="45.63968" lon="0.71546">
        <ele>241.90893554688</ele>
        <time>2010-12-27T10:55:39Z</time>
      </trkpt>
      <trkpt lat="45.63997" lon="0.71659">
        <ele>239.98620605469</ele>
        <time>2010-12-27T10:55:48Z</time>
      </trkpt>
      <trkpt lat="45.64089" lon="0.71761">
        <ele>236.14099121094</ele>
        <time>2010-12-27T10:56:00Z</time>
      </trkpt>
      <trkpt lat="45.64229" lon="0.71801">
        <ele>229.41174316406</ele>
        <time>2010-12-27T10:56:13Z</time>
      </trkpt>
      <trkpt lat="45.64332" lon="0.71862">
        <ele>225.0859375</ele>
        <time>2010-12-27T10:56:23Z</time>
      </trkpt>
      <trkpt lat="45.64449" lon="0.7196">
        <ele>218.83728027344</ele>
        <time>2010-12-27T10:56:35Z</time>
      </trkpt>
      <trkpt lat="45.64574" lon="0.72015">
        <ele>218.35656738281</ele>
        <time>2010-12-27T10:56:48Z</time>
      </trkpt>
      <trkpt lat="45.6466" lon="0.72069">
        <ele>222.20178222656</ele>
        <time>2010-12-27T10:57:01Z</time>
      </trkpt>
      <trkpt lat="45.64742" lon="0.72133">
        <ele>225.0859375</ele>
        <time>2010-12-27T10:57:16Z</time>
      </trkpt>
      <trkpt lat="45.64835" lon="0.72203">
        <ele>229.89233398438</ele>
        <time>2010-12-27T10:57:34Z</time>
      </trkpt>
      <trkpt lat="45.64911" lon="0.72261">
        <ele>231.33435058594</ele>
        <time>2010-12-27T10:57:50Z</time>
      </trkpt>
      <trkpt lat="45.64925" lon="0.72272">
        <ele>231.33435058594</ele>
        <time>2010-12-27T10:57:53Z</time>
      </trkpt>
      <trkpt lat="45.64997" lon="0.72361">
        <ele>237.58288574219</ele>
        <time>2010-12-27T10:58:11Z</time>
      </trkpt>
      <trkpt lat="45.65034" lon="0.72449">
        <ele>240.94763183594</ele>
        <time>2010-12-27T10:58:25Z</time>
      </trkpt>
      <trkpt lat="45.65057" lon="0.72594">
        <ele>246.23486328125</ele>
        <time>2010-12-27T10:58:45Z</time>
      </trkpt>
      <trkpt lat="45.65068" lon="0.72733">
        <ele>247.6767578125</ele>
        <time>2010-12-27T10:59:04Z</time>
      </trkpt>
      <trkpt lat="45.65085" lon="0.72851">
        <ele>251.52209472656</ele>
        <time>2010-12-27T10:59:21Z</time>
      </trkpt>
      <trkpt lat="45.65124" lon="0.7295">
        <ele>254.40600585938</ele>
        <time>2010-12-27T10:59:37Z</time>
      </trkpt>
      <trkpt lat="45.65179" lon="0.7303">
        <ele>259.693359375</ele>
        <time>2010-12-27T10:59:53Z</time>
      </trkpt>
      <trkpt lat="45.65263" lon="0.73092">
        <ele>264.49987792969</ele>
        <time>2010-12-27T11:00:12Z</time>
      </trkpt>
      <trkpt lat="45.65351" lon="0.73108">
        <ele>268.34509277344</ele>
        <time>2010-12-27T11:00:30Z</time>
      </trkpt>
      <trkpt lat="45.6545" lon="0.73089">
        <ele>273.15185546875</ele>
        <time>2010-12-27T11:00:49Z</time>
      </trkpt>
      <trkpt lat="45.6555" lon="0.73084">
        <ele>275.07446289062</ele>
        <time>2010-12-27T11:01:05Z</time>
      </trkpt>
      <trkpt lat="45.6557" lon="0.73092">
        <ele>276.03564453125</ele>
        <time>2010-12-27T11:01:08Z</time>
      </trkpt>
      <trkpt lat="45.65651" lon="0.73171">
        <ele>278.43896484375</ele>
        <time>2010-12-27T11:01:23Z</time>
      </trkpt>
      <trkpt lat="45.65664" lon="0.73192">
        <ele>277.95825195312</ele>
        <time>2010-12-27T11:01:26Z</time>
      </trkpt>
      <trkpt lat="45.65727" lon="0.73313">
        <ele>276.9970703125</ele>
        <time>2010-12-27T11:01:42Z</time>
      </trkpt>
      <trkpt lat="45.65753" lon="0.73336">
        <ele>276.9970703125</ele>
        <time>2010-12-27T11:01:46Z</time>
      </trkpt>
      <trkpt lat="45.65776" lon="0.73347">
        <ele>276.51635742188</ele>
        <time>2010-12-27T11:01:49Z</time>
      </trkpt>
      <trkpt lat="45.65817" lon="0.7335">
        <ele>276.51635742188</ele>
        <time>2010-12-27T11:01:54Z</time>
      </trkpt>
      <trkpt lat="45.6593" lon="0.73299">
        <ele>279.40026855469</ele>
        <time>2010-12-27T11:02:10Z</time>
      </trkpt>
      <trkpt lat="45.66034" lon="0.73297">
        <ele>281.32299804688</ele>
        <time>2010-12-27T11:02:25Z</time>
      </trkpt>
      <trkpt lat="45.66152" lon="0.73351">
        <ele>282.28430175781</ele>
        <time>2010-12-27T11:02:43Z</time>
      </trkpt>
      <trkpt lat="45.66288" lon="0.73422">
        <ele>284.68762207031</ele>
        <time>2010-12-27T11:03:04Z</time>
      </trkpt>
      <trkpt lat="45.66395" lon="0.73476">
        <ele>288.53295898438</ele>
        <time>2010-12-27T11:03:23Z</time>
      </trkpt>
      <trkpt lat="45.66483" lon="0.73525">
        <ele>291.41674804688</ele>
        <time>2010-12-27T11:03:40Z</time>
      </trkpt>
      <trkpt lat="45.66582" lon="0.73573">
        <ele>295.74267578125</ele>
        <time>2010-12-27T11:03:59Z</time>
      </trkpt>
      <trkpt lat="45.66679" lon="0.73623">
        <ele>294.78137207031</ele>
        <time>2010-12-27T11:04:16Z</time>
      </trkpt>
      <trkpt lat="45.66838" lon="0.73702">
        <ele>291.8974609375</ele>
        <time>2010-12-27T11:04:38Z</time>
      </trkpt>
      <trkpt lat="45.6693" lon="0.73708">
        <ele>288.05224609375</ele>
        <time>2010-12-27T11:04:48Z</time>
      </trkpt>
      <trkpt lat="45.67139" lon="0.73666">
        <ele>280.84240722656</ele>
        <time>2010-12-27T11:05:08Z</time>
      </trkpt>
      <trkpt lat="45.67177" lon="0.73641">
        <ele>284.20690917969</ele>
        <time>2010-12-27T11:05:13Z</time>
      </trkpt>
      <trkpt lat="45.67217" lon="0.73597">
        <ele>290.45556640625</ele>
        <time>2010-12-27T11:05:21Z</time>
      </trkpt>
      <trkpt lat="45.67285" lon="0.73501">
        <ele>299.58801269531</ele>
        <time>2010-12-27T11:05:39Z</time>
      </trkpt>
      <trkpt lat="45.67302" lon="0.73486">
        <ele>301.02990722656</ele>
        <time>2010-12-27T11:05:43Z</time>
      </trkpt>
      <trkpt lat="45.67357" lon="0.73475">
        <ele>302.47192382812</ele>
        <time>2010-12-27T11:05:54Z</time>
      </trkpt>
      <trkpt lat="45.67384" lon="0.73484">
        <ele>302.95251464844</ele>
        <time>2010-12-27T11:05:59Z</time>
      </trkpt>
      <trkpt lat="45.67413" lon="0.73503">
        <ele>302.47192382812</ele>
        <time>2010-12-27T11:06:05Z</time>
      </trkpt>
      <trkpt lat="45.675" lon="0.73617">
        <ele>301.99133300781</ele>
        <time>2010-12-27T11:06:26Z</time>
      </trkpt>
      <trkpt lat="45.67574" lon="0.73721">
        <ele>303.43322753906</ele>
        <time>2010-12-27T11:06:44Z</time>
      </trkpt>
      <trkpt lat="45.67664" lon="0.73842">
        <ele>307.75927734375</ele>
        <time>2010-12-27T11:07:06Z</time>
      </trkpt>
      <trkpt lat="45.67746" lon="0.73957">
        <ele>310.64306640625</ele>
        <time>2010-12-27T11:07:26Z</time>
      </trkpt>
      <trkpt lat="45.67837" lon="0.74055">
        <ele>311.12377929688</ele>
        <time>2010-12-27T11:07:43Z</time>
      </trkpt>
      <trkpt lat="45.67971" lon="0.74153">
        <ele>306.31726074219</ele>
        <time>2010-12-27T11:08:01Z</time>
      </trkpt>
      <trkpt lat="45.68109" lon="0.74252">
        <ele>304.39465332031</ele>
        <time>2010-12-27T11:08:17Z</time>
      </trkpt>
      <trkpt lat="45.68216" lon="0.74278">
        <ele>300.06872558594</ele>
        <time>2010-12-27T11:08:28Z</time>
      </trkpt>
      <trkpt lat="45.68327" lon="0.74236">
        <ele>295.74267578125</ele>
        <time>2010-12-27T11:08:39Z</time>
      </trkpt>
      <trkpt lat="45.68513" lon="0.7417">
        <ele>289.97485351562</ele>
        <time>2010-12-27T11:08:56Z</time>
      </trkpt>
      <trkpt lat="45.68722" lon="0.74109">
        <ele>282.76501464844</ele>
        <time>2010-12-27T11:09:13Z</time>
      </trkpt>
      <trkpt lat="45.68919" lon="0.74068">
        <ele>267.38391113281</ele>
        <time>2010-12-27T11:09:26Z</time>
      </trkpt>
      <trkpt lat="45.69057" lon="0.74094">
        <ele>261.13525390625</ele>
        <time>2010-12-27T11:09:35Z</time>
      </trkpt>
      <trkpt lat="45.6915" lon="0.74145">
        <ele>260.65454101562</ele>
        <time>2010-12-27T11:09:44Z</time>
      </trkpt>
      <trkpt lat="45.69247" lon="0.74218">
        <ele>263.53857421875</ele>
        <time>2010-12-27T11:09:57Z</time>
      </trkpt>
      <trkpt lat="45.69353" lon="0.74298">
        <ele>267.38391113281</ele>
        <time>2010-12-27T11:10:14Z</time>
      </trkpt>
      <trkpt lat="45.69449" lon="0.7437">
        <ele>270.74841308594</ele>
        <time>2010-12-27T11:10:31Z</time>
      </trkpt>
      <trkpt lat="45.69521" lon="0.74424">
        <ele>272.67114257812</ele>
        <time>2010-12-27T11:10:44Z</time>
      </trkpt>
      <trkpt lat="45.69567" lon="0.74459">
        <ele>276.03564453125</ele>
        <time>2010-12-27T11:10:52Z</time>
      </trkpt>
      <trkpt lat="45.69637" lon="0.74557">
        <ele>276.9970703125</ele>
        <time>2010-12-27T11:11:09Z</time>
      </trkpt>
      <trkpt lat="45.69654" lon="0.74599">
        <ele>278.91967773438</ele>
        <time>2010-12-27T11:11:16Z</time>
      </trkpt>
      <trkpt lat="45.69672" lon="0.74709">
        <ele>281.80358886719</ele>
        <time>2010-12-27T11:11:34Z</time>
      </trkpt>
      <trkpt lat="45.69671" lon="0.74814">
        <ele>287.0908203125</ele>
        <time>2010-12-27T11:11:51Z</time>
      </trkpt>
      <trkpt lat="45.69671" lon="0.74932">
        <ele>290.45556640625</ele>
        <time>2010-12-27T11:12:09Z</time>
      </trkpt>
      <trkpt lat="45.69682" lon="0.75086">
        <ele>292.37817382812</ele>
        <time>2010-12-27T11:12:29Z</time>
      </trkpt>
      <trkpt lat="45.69704" lon="0.75223">
        <ele>293.82006835938</ele>
        <time>2010-12-27T11:12:45Z</time>
      </trkpt>
      <trkpt lat="45.69734" lon="0.7542">
        <ele>295.26196289062</ele>
        <time>2010-12-27T11:13:08Z</time>
      </trkpt>
      <trkpt lat="45.69784" lon="0.75563">
        <ele>298.62670898438</ele>
        <time>2010-12-27T11:13:24Z</time>
      </trkpt>
      <trkpt lat="45.69864" lon="0.75666">
        <ele>298.62670898438</ele>
        <time>2010-12-27T11:13:39Z</time>
      </trkpt>
      <trkpt lat="45.6995" lon="0.75716">
        <ele>299.58801269531</ele>
        <time>2010-12-27T11:13:52Z</time>
      </trkpt>
      <trkpt lat="45.70057" lon="0.7572">
        <ele>300.54931640625</ele>
        <time>2010-12-27T11:14:07Z</time>
      </trkpt>
      <trkpt lat="45.70158" lon="0.75685">
        <ele>300.54931640625</ele>
        <time>2010-12-27T11:14:23Z</time>
      </trkpt>
      <trkpt lat="45.70176" lon="0.75683">
        <ele>300.06872558594</ele>
        <time>2010-12-27T11:14:26Z</time>
      </trkpt>
      <trkpt lat="45.70267" lon="0.75701">
        <ele>304.87524414062</ele>
        <time>2010-12-27T11:14:41Z</time>
      </trkpt>
      <trkpt lat="45.70277" lon="0.75705">
        <ele>304.87524414062</ele>
        <time>2010-12-27T11:14:43Z</time>
      </trkpt>
      <trkpt lat="45.70351" lon="0.75747">
        <ele>304.87524414062</ele>
        <time>2010-12-27T11:14:59Z</time>
      </trkpt>
      <trkpt lat="45.70449" lon="0.75802">
        <ele>307.27856445312</ele>
        <time>2010-12-27T11:15:19Z</time>
      </trkpt>
      <trkpt lat="45.70514" lon="0.75839">
        <ele>309.68188476562</ele>
        <time>2010-12-27T11:15:32Z</time>
      </trkpt>
      <trkpt lat="45.70528" lon="0.75844">
        <ele>310.16247558594</ele>
        <time>2010-12-27T11:15:35Z</time>
      </trkpt>
      <trkpt lat="45.70542" lon="0.75853">
        <ele>310.64306640625</ele>
        <time>2010-12-27T11:15:38Z</time>
      </trkpt>
      <trkpt lat="45.70555" lon="0.75859">
        <ele>312.08520507812</ele>
        <time>2010-12-27T11:15:41Z</time>
      </trkpt>
      <trkpt lat="45.70575" lon="0.75887">
        <ele>314.48840332031</ele>
        <time>2010-12-27T11:15:49Z</time>
      </trkpt>
      <trkpt lat="45.70574" lon="0.75897">
        <ele>315.44982910156</ele>
        <time>2010-12-27T11:15:52Z</time>
      </trkpt>
      <trkpt lat="45.70583" lon="0.75901">
        <ele>316.41101074219</ele>
        <time>2010-12-27T11:15:56Z</time>
      </trkpt>
      <trkpt lat="45.70601" lon="0.75882">
        <ele>317.37243652344</ele>
        <time>2010-12-27T11:16:02Z</time>
      </trkpt>
      <trkpt lat="45.70636" lon="0.7587">
        <ele>319.77563476562</ele>
        <time>2010-12-27T11:16:10Z</time>
      </trkpt>
      <trkpt lat="45.70664" lon="0.75876">
        <ele>322.17895507812</ele>
        <time>2010-12-27T11:16:16Z</time>
      </trkpt>
      <trkpt lat="45.70718" lon="0.75892">
        <ele>325.06298828125</ele>
        <time>2010-12-27T11:16:28Z</time>
      </trkpt>
      <trkpt lat="45.70745" lon="0.75853">
        <ele>323.62097167969</ele>
        <time>2010-12-27T11:16:36Z</time>
      </trkpt>
      <trkpt lat="45.7081" lon="0.7572">
        <ele>322.65966796875</ele>
        <time>2010-12-27T11:16:51Z</time>
      </trkpt>
      <trkpt lat="45.70902" lon="0.75589">
        <ele>324.58227539062</ele>
        <time>2010-12-27T11:17:09Z</time>
      </trkpt>
      <trkpt lat="45.71015" lon="0.75484">
        <ele>326.98559570312</ele>
        <time>2010-12-27T11:17:28Z</time>
      </trkpt>
      <trkpt lat="45.71151" lon="0.75396">
        <ele>327.94677734375</ele>
        <time>2010-12-27T11:17:50Z</time>
      </trkpt>
      <trkpt lat="45.71301" lon="0.753">
        <ele>323.62097167969</ele>
        <time>2010-12-27T11:18:11Z</time>
      </trkpt>
      <trkpt lat="45.71334" lon="0.75269">
        <ele>321.69836425781</ele>
        <time>2010-12-27T11:18:15Z</time>
      </trkpt>
      <trkpt lat="45.71359" lon="0.75223">
        <ele>319.77563476562</ele>
        <time>2010-12-27T11:18:19Z</time>
      </trkpt>
      <trkpt lat="45.71406" lon="0.75017">
        <ele>317.85302734375</ele>
        <time>2010-12-27T11:18:34Z</time>
      </trkpt>
      <trkpt lat="45.71455" lon="0.74735">
        <ele>311.6044921875</ele>
        <time>2010-12-27T11:18:56Z</time>
      </trkpt>
      <trkpt lat="45.71484" lon="0.7445">
        <ele>307.27856445312</ele>
        <time>2010-12-27T11:19:17Z</time>
      </trkpt>
      <trkpt lat="45.7146" lon="0.742">
        <ele>299.58801269531</ele>
        <time>2010-12-27T11:19:34Z</time>
      </trkpt>
      <trkpt lat="45.71422" lon="0.73969">
        <ele>289.97485351562</ele>
        <time>2010-12-27T11:19:50Z</time>
      </trkpt>
      <trkpt lat="45.71368" lon="0.73788">
        <ele>290.45556640625</ele>
        <time>2010-12-27T11:20:04Z</time>
      </trkpt>
      <trkpt lat="45.71333" lon="0.73668">
        <ele>294.78137207031</ele>
        <time>2010-12-27T11:20:17Z</time>
      </trkpt>
      <trkpt lat="45.71292" lon="0.73509">
        <ele>299.10729980469</ele>
        <time>2010-12-27T11:20:36Z</time>
      </trkpt>
      <trkpt lat="45.71291" lon="0.73398">
        <ele>297.18469238281</ele>
        <time>2010-12-27T11:20:49Z</time>
      </trkpt>
      <trkpt lat="45.71296" lon="0.73227">
        <ele>293.82006835938</ele>
        <time>2010-12-27T11:21:03Z</time>
      </trkpt>
      <trkpt lat="45.71304" lon="0.72984">
        <ele>291.41674804688</ele>
        <time>2010-12-27T11:21:21Z</time>
      </trkpt>
      <trkpt lat="45.71311" lon="0.72782">
        <ele>293.33935546875</ele>
        <time>2010-12-27T11:21:38Z</time>
      </trkpt>
      <trkpt lat="45.713" lon="0.72582">
        <ele>295.26196289062</ele>
        <time>2010-12-27T11:21:57Z</time>
      </trkpt>
      <trkpt lat="45.71284" lon="0.72436">
        <ele>296.22351074219</ele>
        <time>2010-12-27T11:22:13Z</time>
      </trkpt>
      <trkpt lat="45.71306" lon="0.72395">
        <ele>296.22351074219</ele>
        <time>2010-12-27T11:22:20Z</time>
      </trkpt>
      <trkpt lat="45.71423" lon="0.72345">
        <ele>296.7041015625</ele>
        <time>2010-12-27T11:22:36Z</time>
      </trkpt>
      <trkpt lat="45.71648" lon="0.72242">
        <ele>295.26196289062</ele>
        <time>2010-12-27T11:23:04Z</time>
      </trkpt>
      <trkpt lat="45.71787" lon="0.72169">
        <ele>291.41674804688</ele>
        <time>2010-12-27T11:23:20Z</time>
      </trkpt>
      <trkpt lat="45.71971" lon="0.72069">
        <ele>286.61022949219</ele>
        <time>2010-12-27T11:23:40Z</time>
      </trkpt>
      <trkpt lat="45.72143" lon="0.71971">
        <ele>285.64880371094</ele>
        <time>2010-12-27T11:24:00Z</time>
      </trkpt>
      <trkpt lat="45.72303" lon="0.71883">
        <ele>283.72619628906</ele>
        <time>2010-12-27T11:24:19Z</time>
      </trkpt>
      <trkpt lat="45.72484" lon="0.71787">
        <ele>278.43896484375</ele>
        <time>2010-12-27T11:24:39Z</time>
      </trkpt>
      <trkpt lat="45.7252" lon="0.7177">
        <ele>277.95825195312</ele>
        <time>2010-12-27T11:24:43Z</time>
      </trkpt>
      <trkpt lat="45.72557" lon="0.71779">
        <ele>277.95825195312</ele>
        <time>2010-12-27T11:24:47Z</time>
      </trkpt>
      <trkpt lat="45.72629" lon="0.71856">
        <ele>277.47766113281</ele>
        <time>2010-12-27T11:24:57Z</time>
      </trkpt>
      <trkpt lat="45.72742" lon="0.72016">
        <ele>271.70971679688</ele>
        <time>2010-12-27T11:25:15Z</time>
      </trkpt>
      <trkpt lat="45.72755" lon="0.72035">
        <ele>271.22912597656</ele>
        <time>2010-12-27T11:25:17Z</time>
      </trkpt>
      <trkpt lat="45.72822" lon="0.72059">
        <ele>268.34509277344</ele>
        <time>2010-12-27T11:25:25Z</time>
      </trkpt>
      <trkpt lat="45.72854" lon="0.72025">
        <ele>265.94189453125</ele>
        <time>2010-12-27T11:25:29Z</time>
      </trkpt>
      <trkpt lat="45.72973" lon="0.71824">
        <ele>260.17395019531</ele>
        <time>2010-12-27T11:25:47Z</time>
      </trkpt>
      <trkpt lat="45.73041" lon="0.7171">
        <ele>253.92541503906</ele>
        <time>2010-12-27T11:25:57Z</time>
      </trkpt>
      <trkpt lat="45.73098" lon="0.71669">
        <ele>251.52209472656</ele>
        <time>2010-12-27T11:26:03Z</time>
      </trkpt>
      <trkpt lat="45.73118" lon="0.71665">
        <ele>250.56079101562</ele>
        <time>2010-12-27T11:26:05Z</time>
      </trkpt>
      <trkpt lat="45.7316" lon="0.71606">
        <ele>247.6767578125</ele>
        <time>2010-12-27T11:26:11Z</time>
      </trkpt>
      <trkpt lat="45.73132" lon="0.71543">
        <ele>243.35083007812</ele>
        <time>2010-12-27T11:26:16Z</time>
      </trkpt>
      <trkpt lat="45.73096" lon="0.71507">
        <ele>240.46704101562</ele>
        <time>2010-12-27T11:26:20Z</time>
      </trkpt>
      <trkpt lat="45.73079" lon="0.71436">
        <ele>236.62170410156</ele>
        <time>2010-12-27T11:26:25Z</time>
      </trkpt>
      <trkpt lat="45.73124" lon="0.71388">
        <ele>232.77648925781</ele>
        <time>2010-12-27T11:26:30Z</time>
      </trkpt>
      <trkpt lat="45.73135" lon="0.71383">
        <ele>231.81494140625</ele>
        <time>2010-12-27T11:26:31Z</time>
      </trkpt>
      <trkpt lat="45.73237" lon="0.71348">
        <ele>227.48913574219</ele>
        <time>2010-12-27T11:26:40Z</time>
      </trkpt>
      <trkpt lat="45.73283" lon="0.71277">
        <ele>224.60522460938</ele>
        <time>2010-12-27T11:26:46Z</time>
      </trkpt>
      <trkpt lat="45.73305" lon="0.71199">
        <ele>221.24060058594</ele>
        <time>2010-12-27T11:26:51Z</time>
      </trkpt>
      <trkpt lat="45.73302" lon="0.71099">
        <ele>217.8759765625</ele>
        <time>2010-12-27T11:26:57Z</time>
      </trkpt>
      <trkpt lat="45.73322" lon="0.71029">
        <ele>217.39538574219</ele>
        <time>2010-12-27T11:27:02Z</time>
      </trkpt>
      <trkpt lat="45.73343" lon="0.70999">
        <ele>217.8759765625</ele>
        <time>2010-12-27T11:27:05Z</time>
      </trkpt>
      <trkpt lat="45.73345" lon="0.70932">
        <ele>220.27917480469</ele>
        <time>2010-12-27T11:27:11Z</time>
      </trkpt>
      <trkpt lat="45.73333" lon="0.70911">
        <ele>222.20178222656</ele>
        <time>2010-12-27T11:27:14Z</time>
      </trkpt>
      <trkpt lat="45.73324" lon="0.70875">
        <ele>224.12451171875</ele>
        <time>2010-12-27T11:27:19Z</time>
      </trkpt>
      <trkpt lat="45.73326" lon="0.70838">
        <ele>226.04711914062</ele>
        <time>2010-12-27T11:27:25Z</time>
      </trkpt>
      <trkpt lat="45.73326" lon="0.70785">
        <ele>230.373046875</ele>
        <time>2010-12-27T11:27:34Z</time>
      </trkpt>
      <trkpt lat="45.7333" lon="0.70765">
        <ele>231.81494140625</ele>
        <time>2010-12-27T11:27:38Z</time>
      </trkpt>
      <trkpt lat="45.73339" lon="0.70749">
        <ele>232.29577636719</ele>
        <time>2010-12-27T11:27:42Z</time>
      </trkpt>
      <trkpt lat="45.73381" lon="0.70703">
        <ele>238.06359863281</ele>
        <time>2010-12-27T11:27:56Z</time>
      </trkpt>
      <trkpt lat="45.73389" lon="0.70698">
        <ele>238.54431152344</ele>
        <time>2010-12-27T11:27:58Z</time>
      </trkpt>
      <trkpt lat="45.73441" lon="0.70684">
        <ele>239.98620605469</ele>
        <time>2010-12-27T11:28:12Z</time>
      </trkpt>
      <trkpt lat="45.73483" lon="0.70669">
        <ele>244.79284667969</ele>
        <time>2010-12-27T11:28:24Z</time>
      </trkpt>
      <trkpt lat="45.7353" lon="0.70628">
        <ele>250.08020019531</ele>
        <time>2010-12-27T11:28:40Z</time>
      </trkpt>
      <trkpt lat="45.73575" lon="0.70574">
        <ele>254.88659667969</ele>
        <time>2010-12-27T11:28:55Z</time>
      </trkpt>
      <trkpt lat="45.7362" lon="0.70514">
        <ele>258.25134277344</ele>
        <time>2010-12-27T11:29:12Z</time>
      </trkpt>
      <trkpt lat="45.73669" lon="0.70451">
        <ele>264.01928710938</ele>
        <time>2010-12-27T11:29:30Z</time>
      </trkpt>
      <trkpt lat="45.73704" lon="0.70406">
        <ele>265.94189453125</ele>
        <time>2010-12-27T11:29:44Z</time>
      </trkpt>
      <trkpt lat="45.73743" lon="0.70347">
        <ele>270.74841308594</ele>
        <time>2010-12-27T11:30:00Z</time>
      </trkpt>
      <trkpt lat="45.73775" lon="0.70263">
        <ele>274.59375</ele>
        <time>2010-12-27T11:30:18Z</time>
      </trkpt>
      <trkpt lat="45.73796" lon="0.70215">
        <ele>276.03564453125</ele>
        <time>2010-12-27T11:30:28Z</time>
      </trkpt>
      <trkpt lat="45.7385" lon="0.70191">
        <ele>280.84240722656</ele>
        <time>2010-12-27T11:30:43Z</time>
      </trkpt>
      <trkpt lat="45.73859" lon="0.7019">
        <ele>281.32299804688</ele>
        <time>2010-12-27T11:30:45Z</time>
      </trkpt>
      <trkpt lat="45.73886" lon="0.70187">
        <ele>281.80358886719</ele>
        <time>2010-12-27T11:30:51Z</time>
      </trkpt>
      <trkpt lat="45.73922" lon="0.70178">
        <ele>281.80358886719</ele>
        <time>2010-12-27T11:30:59Z</time>
      </trkpt>
      <trkpt lat="45.73998" lon="0.70146">
        <ele>276.03564453125</ele>
        <time>2010-12-27T11:31:11Z</time>
      </trkpt>
      <trkpt lat="45.7402" lon="0.70126">
        <ele>274.59375</ele>
        <time>2010-12-27T11:31:14Z</time>
      </trkpt>
      <trkpt lat="45.74129" lon="0.69961">
        <ele>264.01928710938</ele>
        <time>2010-12-27T11:31:29Z</time>
      </trkpt>
      <trkpt lat="45.74275" lon="0.69756">
        <ele>252.96398925781</ele>
        <time>2010-12-27T11:31:47Z</time>
      </trkpt>
      <trkpt lat="45.7429" lon="0.69733">
        <ele>252.96398925781</ele>
        <time>2010-12-27T11:31:49Z</time>
      </trkpt>
      <trkpt lat="45.74308" lon="0.6968">
        <ele>252.4833984375</ele>
        <time>2010-12-27T11:31:53Z</time>
      </trkpt>
      <trkpt lat="45.74332" lon="0.69515">
        <ele>255.84802246094</ele>
        <time>2010-12-27T11:32:07Z</time>
      </trkpt>
      <trkpt lat="45.74345" lon="0.69418">
        <ele>252.96398925781</ele>
        <time>2010-12-27T11:32:18Z</time>
      </trkpt>
      <trkpt lat="45.74331" lon="0.69403">
        <ele>252.4833984375</ele>
        <time>2010-12-27T11:32:23Z</time>
      </trkpt>
      <trkpt lat="45.74309" lon="0.69397">
        <ele>252.00280761719</ele>
        <time>2010-12-27T11:32:27Z</time>
      </trkpt>
      <trkpt lat="45.74266" lon="0.69369">
        <ele>249.59948730469</ele>
        <time>2010-12-27T11:32:34Z</time>
      </trkpt>
      <trkpt lat="45.74247" lon="0.69295">
        <ele>247.6767578125</ele>
        <time>2010-12-27T11:32:41Z</time>
      </trkpt>
      <trkpt lat="45.74248" lon="0.69283">
        <ele>247.6767578125</ele>
        <time>2010-12-27T11:32:42Z</time>
      </trkpt>
      <trkpt lat="45.74277" lon="0.69113">
        <ele>253.44470214844</ele>
        <time>2010-12-27T11:32:59Z</time>
      </trkpt>
      <trkpt lat="45.74281" lon="0.69089">
        <ele>253.92541503906</ele>
        <time>2010-12-27T11:33:02Z</time>
      </trkpt>
      <trkpt lat="45.74303" lon="0.68971">
        <ele>257.77075195312</ele>
        <time>2010-12-27T11:33:20Z</time>
      </trkpt>
      <trkpt lat="45.7432" lon="0.68924">
        <ele>258.25134277344</ele>
        <time>2010-12-27T11:33:28Z</time>
      </trkpt>
      <trkpt lat="45.74331" lon="0.68902">
        <ele>259.21264648438</ele>
        <time>2010-12-27T11:33:32Z</time>
      </trkpt>
      <trkpt lat="45.74341" lon="0.68879">
        <ele>259.693359375</ele>
        <time>2010-12-27T11:33:36Z</time>
      </trkpt>
      <trkpt lat="45.74353" lon="0.68851">
        <ele>259.693359375</ele>
        <time>2010-12-27T11:33:41Z</time>
      </trkpt>
      <trkpt lat="45.74373" lon="0.68795">
        <ele>262.5771484375</ele>
        <time>2010-12-27T11:33:51Z</time>
      </trkpt>
      <trkpt lat="45.74392" lon="0.68679">
        <ele>266.42248535156</ele>
        <time>2010-12-27T11:34:09Z</time>
      </trkpt>
      <trkpt lat="45.74401" lon="0.68614">
        <ele>268.34509277344</ele>
        <time>2010-12-27T11:34:19Z</time>
      </trkpt>
      <trkpt lat="45.74408" lon="0.68541">
        <ele>270.74841308594</ele>
        <time>2010-12-27T11:34:30Z</time>
      </trkpt>
      <trkpt lat="45.74408" lon="0.6852">
        <ele>271.22912597656</ele>
        <time>2010-12-27T11:34:33Z</time>
      </trkpt>
      <trkpt lat="45.74403" lon="0.68493">
        <ele>272.1904296875</ele>
        <time>2010-12-27T11:34:37Z</time>
      </trkpt>
      <trkpt lat="45.74392" lon="0.68472">
        <ele>273.63244628906</ele>
        <time>2010-12-27T11:34:41Z</time>
      </trkpt>
      <trkpt lat="45.74373" lon="0.68438">
        <ele>274.11303710938</ele>
        <time>2010-12-27T11:34:47Z</time>
      </trkpt>
      <trkpt lat="45.74367" lon="0.68353">
        <ele>276.9970703125</ele>
        <time>2010-12-27T11:35:01Z</time>
      </trkpt>
      <trkpt lat="45.74367" lon="0.68293">
        <ele>278.43896484375</ele>
        <time>2010-12-27T11:35:11Z</time>
      </trkpt>
      <trkpt lat="45.7437" lon="0.68268">
        <ele>279.880859375</ele>
        <time>2010-12-27T11:35:15Z</time>
      </trkpt>
      <trkpt lat="45.74409" lon="0.6816">
        <ele>284.20690917969</ele>
        <time>2010-12-27T11:35:33Z</time>
      </trkpt>
      <trkpt lat="45.74427" lon="0.68116">
        <ele>286.12951660156</ele>
        <time>2010-12-27T11:35:41Z</time>
      </trkpt>
      <trkpt lat="45.7444" lon="0.68055">
        <ele>286.61022949219</ele>
        <time>2010-12-27T11:35:50Z</time>
      </trkpt>
      <trkpt lat="45.74441" lon="0.67905">
        <ele>281.32299804688</ele>
        <time>2010-12-27T11:36:04Z</time>
      </trkpt>
      <trkpt lat="45.7444" lon="0.67631">
        <ele>272.1904296875</ele>
        <time>2010-12-27T11:36:23Z</time>
      </trkpt>
      <trkpt lat="45.7444" lon="0.67293">
        <ele>266.42248535156</ele>
        <time>2010-12-27T11:36:46Z</time>
      </trkpt>
      <trkpt lat="45.7444" lon="0.67114">
        <ele>268.34509277344</ele>
        <time>2010-12-27T11:37:01Z</time>
      </trkpt>
      <trkpt lat="45.74439" lon="0.66864">
        <ele>267.38391113281</ele>
        <time>2010-12-27T11:37:24Z</time>
      </trkpt>
      <trkpt lat="45.74446" lon="0.66584">
        <ele>260.65454101562</ele>
        <time>2010-12-27T11:37:47Z</time>
      </trkpt>
      <trkpt lat="45.74497" lon="0.6637">
        <ele>254.88659667969</ele>
        <time>2010-12-27T11:38:03Z</time>
      </trkpt>
      <trkpt lat="45.74535" lon="0.66212">
        <ele>258.25134277344</ele>
        <time>2010-12-27T11:38:17Z</time>
      </trkpt>
      <trkpt lat="45.74575" lon="0.66045">
        <ele>261.13525390625</ele>
        <time>2010-12-27T11:38:36Z</time>
      </trkpt>
      <trkpt lat="45.74628" lon="0.65826">
        <ele>264.49987792969</ele>
        <time>2010-12-27T11:39:01Z</time>
      </trkpt>
      <trkpt lat="45.74678" lon="0.65619">
        <ele>266.90319824219</ele>
        <time>2010-12-27T11:39:25Z</time>
      </trkpt>
      <trkpt lat="45.74718" lon="0.65456">
        <ele>269.30651855469</ele>
        <time>2010-12-27T11:39:44Z</time>
      </trkpt>
      <trkpt lat="45.74767" lon="0.6525">
        <ele>270.74841308594</ele>
        <time>2010-12-27T11:40:06Z</time>
      </trkpt>
      <trkpt lat="45.74806" lon="0.65092">
        <ele>271.70971679688</ele>
        <time>2010-12-27T11:40:23Z</time>
      </trkpt>
      <trkpt lat="45.74811" lon="0.65067">
        <ele>270.74841308594</ele>
        <time>2010-12-27T11:40:26Z</time>
      </trkpt>
      <trkpt lat="45.74851" lon="0.64903">
        <ele>274.11303710938</ele>
        <time>2010-12-27T11:40:44Z</time>
      </trkpt>
      <trkpt lat="45.74884" lon="0.64728">
        <ele>274.11303710938</ele>
        <time>2010-12-27T11:41:02Z</time>
      </trkpt>
      <trkpt lat="45.74907" lon="0.64525">
        <ele>271.70971679688</ele>
        <time>2010-12-27T11:41:19Z</time>
      </trkpt>
      <trkpt lat="45.7495" lon="0.64332">
        <ele>270.26770019531</ele>
        <time>2010-12-27T11:41:34Z</time>
      </trkpt>
      <trkpt lat="45.75007" lon="0.64184">
        <ele>274.11303710938</ele>
        <time>2010-12-27T11:41:49Z</time>
      </trkpt>
      <trkpt lat="45.75056" lon="0.64049">
        <ele>276.9970703125</ele>
        <time>2010-12-27T11:42:05Z</time>
      </trkpt>
      <trkpt lat="45.75072" lon="0.63936">
        <ele>278.43896484375</ele>
        <time>2010-12-27T11:42:17Z</time>
      </trkpt>
      <trkpt lat="45.7508" lon="0.63762">
        <ele>278.43896484375</ele>
        <time>2010-12-27T11:42:34Z</time>
      </trkpt>
      <trkpt lat="45.75095" lon="0.63554">
        <ele>276.03564453125</ele>
        <time>2010-12-27T11:42:52Z</time>
      </trkpt>
      <trkpt lat="45.75139" lon="0.63325">
        <ele>274.11303710938</ele>
        <time>2010-12-27T11:43:12Z</time>
      </trkpt>
      <trkpt lat="45.75192" lon="0.63058">
        <ele>274.11303710938</ele>
        <time>2010-12-27T11:43:36Z</time>
      </trkpt>
      <trkpt lat="45.75226" lon="0.62888">
        <ele>274.11303710938</ele>
        <time>2010-12-27T11:43:51Z</time>
      </trkpt>
      <trkpt lat="45.75282" lon="0.62608">
        <ele>275.55505371094</ele>
        <time>2010-12-27T11:44:17Z</time>
      </trkpt>
      <trkpt lat="45.75315" lon="0.62399">
        <ele>276.9970703125</ele>
        <time>2010-12-27T11:44:36Z</time>
      </trkpt>
      <trkpt lat="45.75331" lon="0.62282">
        <ele>278.43896484375</ele>
        <time>2010-12-27T11:44:47Z</time>
      </trkpt>
      <trkpt lat="45.75337" lon="0.6225">
        <ele>278.43896484375</ele>
        <time>2010-12-27T11:44:50Z</time>
      </trkpt>
      <trkpt lat="45.75362" lon="0.62073">
        <ele>277.95825195312</ele>
        <time>2010-12-27T11:45:07Z</time>
      </trkpt>
      <trkpt lat="45.75365" lon="0.61903">
        <ele>275.55505371094</ele>
        <time>2010-12-27T11:45:22Z</time>
      </trkpt>
      <trkpt lat="45.75352" lon="0.61649">
        <ele>270.74841308594</ele>
        <time>2010-12-27T11:45:42Z</time>
      </trkpt>
      <trkpt lat="45.7534" lon="0.61404">
        <ele>271.22912597656</ele>
        <time>2010-12-27T11:46:02Z</time>
      </trkpt>
      <trkpt lat="45.75333" lon="0.61227">
        <ele>276.03564453125</ele>
        <time>2010-12-27T11:46:19Z</time>
      </trkpt>
      <trkpt lat="45.75329" lon="0.61104">
        <ele>274.59375</ele>
        <time>2010-12-27T11:46:30Z</time>
      </trkpt>
      <trkpt lat="45.75317" lon="0.60866">
        <ele>276.03564453125</ele>
        <time>2010-12-27T11:46:50Z</time>
      </trkpt>
      <trkpt lat="45.75303" lon="0.60717">
        <ele>277.47766113281</ele>
        <time>2010-12-27T11:47:05Z</time>
      </trkpt>
      <trkpt lat="45.75283" lon="0.60568">
        <ele>279.40026855469</ele>
        <time>2010-12-27T11:47:23Z</time>
      </trkpt>
      <trkpt lat="45.7528" lon="0.6054">
        <ele>278.43896484375</ele>
        <time>2010-12-27T11:47:27Z</time>
      </trkpt>
      <trkpt lat="45.75275" lon="0.60512">
        <ele>279.40026855469</ele>
        <time>2010-12-27T11:47:31Z</time>
      </trkpt>
      <trkpt lat="45.75257" lon="0.60372">
        <ele>278.43896484375</ele>
        <time>2010-12-27T11:47:46Z</time>
      </trkpt>
      <trkpt lat="45.75242" lon="0.60145">
        <ele>276.51635742188</ele>
        <time>2010-12-27T11:48:07Z</time>
      </trkpt>
      <trkpt lat="45.75249" lon="0.59942">
        <ele>278.91967773438</ele>
        <time>2010-12-27T11:48:26Z</time>
      </trkpt>
      <trkpt lat="45.75258" lon="0.59738">
        <ele>283.72619628906</ele>
        <time>2010-12-27T11:48:49Z</time>
      </trkpt>
      <trkpt lat="45.75243" lon="0.5957">
        <ele>285.16821289062</ele>
        <time>2010-12-27T11:49:09Z</time>
      </trkpt>
      <trkpt lat="45.75214" lon="0.59368">
        <ele>283.24560546875</ele>
        <time>2010-12-27T11:49:29Z</time>
      </trkpt>
      <trkpt lat="45.75166" lon="0.59219">
        <ele>283.72619628906</ele>
        <time>2010-12-27T11:49:44Z</time>
      </trkpt>
      <trkpt lat="45.75085" lon="0.59026">
        <ele>285.64880371094</ele>
        <time>2010-12-27T11:50:06Z</time>
      </trkpt>
      <trkpt lat="45.75013" lon="0.58834">
        <ele>288.05224609375</ele>
        <time>2010-12-27T11:50:28Z</time>
      </trkpt>
      <trkpt lat="45.75008" lon="0.58806">
        <ele>288.53295898438</ele>
        <time>2010-12-27T11:50:31Z</time>
      </trkpt>
      <trkpt lat="45.75007" lon="0.58778">
        <ele>289.01354980469</ele>
        <time>2010-12-27T11:50:34Z</time>
      </trkpt>
      <trkpt lat="45.75005" lon="0.5875">
        <ele>288.53295898438</ele>
        <time>2010-12-27T11:50:37Z</time>
      </trkpt>
      <trkpt lat="45.75006" lon="0.58548">
        <ele>292.37817382812</ele>
        <time>2010-12-27T11:50:58Z</time>
      </trkpt>
      <trkpt lat="45.74989" lon="0.58411">
        <ele>294.78137207031</ele>
        <time>2010-12-27T11:51:15Z</time>
      </trkpt>
      <trkpt lat="45.74958" lon="0.58294">
        <ele>301.02990722656</ele>
        <time>2010-12-27T11:51:33Z</time>
      </trkpt>
      <trkpt lat="45.74954" lon="0.58184">
        <ele>303.91394042969</ele>
        <time>2010-12-27T11:51:50Z</time>
      </trkpt>
      <trkpt lat="45.74959" lon="0.58145">
        <ele>304.87524414062</ele>
        <time>2010-12-27T11:51:55Z</time>
      </trkpt>
      <trkpt lat="45.74991" lon="0.57998">
        <ele>306.7978515625</ele>
        <time>2010-12-27T11:52:13Z</time>
      </trkpt>
      <trkpt lat="45.75009" lon="0.57885">
        <ele>311.6044921875</ele>
        <time>2010-12-27T11:52:28Z</time>
      </trkpt>
      <trkpt lat="45.75014" lon="0.57849">
        <ele>314.0078125</ele>
        <time>2010-12-27T11:52:33Z</time>
      </trkpt>
      <trkpt lat="45.75023" lon="0.57778">
        <ele>315.93041992188</ele>
        <time>2010-12-27T11:52:43Z</time>
      </trkpt>
      <trkpt lat="45.75037" lon="0.57664">
        <ele>320.73706054688</ele>
        <time>2010-12-27T11:52:58Z</time>
      </trkpt>
      <trkpt lat="45.75053" lon="0.57544">
        <ele>321.2177734375</ele>
        <time>2010-12-27T11:53:12Z</time>
      </trkpt>
      <trkpt lat="45.75092" lon="0.57474">
        <ele>320.25634765625</ele>
        <time>2010-12-27T11:53:21Z</time>
      </trkpt>
      <trkpt lat="45.75099" lon="0.5747">
        <ele>320.25634765625</ele>
        <time>2010-12-27T11:53:22Z</time>
      </trkpt>
      <trkpt lat="45.75229" lon="0.57418">
        <ele>324.58227539062</ele>
        <time>2010-12-27T11:53:42Z</time>
      </trkpt>
      <trkpt lat="45.75356" lon="0.57362">
        <ele>326.02416992188</ele>
        <time>2010-12-27T11:54:02Z</time>
      </trkpt>
      <trkpt lat="45.75458" lon="0.57292">
        <ele>328.90832519531</ele>
        <time>2010-12-27T11:54:19Z</time>
      </trkpt>
      <trkpt lat="45.75522" lon="0.57171">
        <ele>330.35021972656</ele>
        <time>2010-12-27T11:54:35Z</time>
      </trkpt>
      <trkpt lat="45.75556" lon="0.57">
        <ele>327.94677734375</ele>
        <time>2010-12-27T11:54:51Z</time>
      </trkpt>
      <trkpt lat="45.75563" lon="0.56953">
        <ele>326.98559570312</ele>
        <time>2010-12-27T11:54:55Z</time>
      </trkpt>
      <trkpt lat="45.75564" lon="0.56907">
        <ele>326.02416992188</ele>
        <time>2010-12-27T11:54:59Z</time>
      </trkpt>
      <trkpt lat="45.75571" lon="0.56878">
        <ele>325.06298828125</ele>
        <time>2010-12-27T11:55:03Z</time>
      </trkpt>
      <trkpt lat="45.75617" lon="0.56824">
        <ele>321.69836425781</ele>
        <time>2010-12-27T11:55:13Z</time>
      </trkpt>
      <trkpt lat="45.75723" lon="0.56705">
        <ele>314.96911621094</ele>
        <time>2010-12-27T11:55:26Z</time>
      </trkpt>
      <trkpt lat="45.75888" lon="0.56522">
        <ele>309.68188476562</ele>
        <time>2010-12-27T11:55:44Z</time>
      </trkpt>
      <trkpt lat="45.7602" lon="0.56411">
        <ele>306.31726074219</ele>
        <time>2010-12-27T11:55:58Z</time>
      </trkpt>
      <trkpt lat="45.76242" lon="0.56293">
        <ele>296.7041015625</ele>
        <time>2010-12-27T11:56:18Z</time>
      </trkpt>
      <trkpt lat="45.76504" lon="0.56148">
        <ele>290.93615722656</ele>
        <time>2010-12-27T11:56:41Z</time>
      </trkpt>
      <trkpt lat="45.76666" lon="0.56088">
        <ele>289.494140625</ele>
        <time>2010-12-27T11:56:56Z</time>
      </trkpt>
      <trkpt lat="45.76915" lon="0.56016">
        <ele>286.12951660156</ele>
        <time>2010-12-27T11:57:20Z</time>
      </trkpt>
      <trkpt lat="45.77083" lon="0.55966">
        <ele>283.24560546875</ele>
        <time>2010-12-27T11:57:37Z</time>
      </trkpt>
      <trkpt lat="45.77317" lon="0.559">
        <ele>282.28430175781</ele>
        <time>2010-12-27T11:58:02Z</time>
      </trkpt>
      <trkpt lat="45.77394" lon="0.55872">
        <ele>283.72619628906</ele>
        <time>2010-12-27T11:58:11Z</time>
      </trkpt>
      <trkpt lat="45.77429" lon="0.55843">
        <ele>282.76501464844</ele>
        <time>2010-12-27T11:58:16Z</time>
      </trkpt>
      <trkpt lat="45.77521" lon="0.55709">
        <ele>273.63244628906</ele>
        <time>2010-12-27T11:58:31Z</time>
      </trkpt>
      <trkpt lat="45.77617" lon="0.55565">
        <ele>265.94189453125</ele>
        <time>2010-12-27T11:58:44Z</time>
      </trkpt>
      <trkpt lat="45.77632" lon="0.55529">
        <ele>265.94189453125</ele>
        <time>2010-12-27T11:58:47Z</time>
      </trkpt>
      <trkpt lat="45.77655" lon="0.55404">
        <ele>268.34509277344</ele>
        <time>2010-12-27T11:58:59Z</time>
      </trkpt>
      <trkpt lat="45.77661" lon="0.55387">
        <ele>269.30651855469</ele>
        <time>2010-12-27T11:59:02Z</time>
      </trkpt>
      <trkpt lat="45.77657" lon="0.55356">
        <ele>268.82580566406</ele>
        <time>2010-12-27T11:59:07Z</time>
      </trkpt>
      <trkpt lat="45.77654" lon="0.553">
        <ele>270.74841308594</ele>
        <time>2010-12-27T11:59:15Z</time>
      </trkpt>
      <trkpt lat="45.77661" lon="0.55266">
        <ele>271.70971679688</ele>
        <time>2010-12-27T11:59:20Z</time>
      </trkpt>
      <trkpt lat="45.77693" lon="0.55213">
        <ele>271.22912597656</ele>
        <time>2010-12-27T11:59:33Z</time>
      </trkpt>
      <trkpt lat="45.77697" lon="0.55201">
        <ele>271.70971679688</ele>
        <time>2010-12-27T11:59:44Z</time>
      </trkpt>
      <trkpt lat="45.77697" lon="0.55201">
        <ele>271.70971679688</ele>
        <time>2010-12-27T11:59:45Z</time>
      </trkpt>
      <trkpt lat="45.77693" lon="0.55212">
        <ele>277.95825195312</ele>
        <time>2010-12-27T12:10:54Z</time>
      </trkpt>
      <trkpt lat="45.77692" lon="0.55209">
        <ele>278.43896484375</ele>
        <time>2010-12-27T12:12:00Z</time>
      </trkpt>
      <trkpt lat="45.77684" lon="0.55213">
        <ele>278.43896484375</ele>
        <time>2010-12-27T12:12:04Z</time>
      </trkpt>
      <trkpt lat="45.7767" lon="0.55246">
        <ele>277.95825195312</ele>
        <time>2010-12-27T12:12:12Z</time>
      </trkpt>
      <trkpt lat="45.77657" lon="0.55276">
        <ele>276.51635742188</ele>
        <time>2010-12-27T12:12:17Z</time>
      </trkpt>
      <trkpt lat="45.77653" lon="0.55315">
        <ele>276.03564453125</ele>
        <time>2010-12-27T12:12:22Z</time>
      </trkpt>
      <trkpt lat="45.77654" lon="0.55369">
        <ele>273.63244628906</ele>
        <time>2010-12-27T12:12:28Z</time>
      </trkpt>
      <trkpt lat="45.77653" lon="0.55398">
        <ele>272.67114257812</ele>
        <time>2010-12-27T12:12:31Z</time>
      </trkpt>
      <trkpt lat="45.77613" lon="0.55567">
        <ele>271.22912597656</ele>
        <time>2010-12-27T12:12:48Z</time>
      </trkpt>
      <trkpt lat="45.77558" lon="0.55652">
        <ele>276.03564453125</ele>
        <time>2010-12-27T12:13:01Z</time>
      </trkpt>
      <trkpt lat="45.77504" lon="0.55725">
        <ele>279.40026855469</ele>
        <time>2010-12-27T12:13:16Z</time>
      </trkpt>
      <trkpt lat="45.7745" lon="0.55804">
        <ele>284.68762207031</ele>
        <time>2010-12-27T12:13:32Z</time>
      </trkpt>
      <trkpt lat="45.77436" lon="0.55823">
        <ele>284.68762207031</ele>
        <time>2010-12-27T12:13:36Z</time>
      </trkpt>
      <trkpt lat="45.77415" lon="0.55844">
        <ele>284.68762207031</ele>
        <time>2010-12-27T12:13:41Z</time>
      </trkpt>
      <trkpt lat="45.77396" lon="0.5586">
        <ele>284.68762207031</ele>
        <time>2010-12-27T12:13:45Z</time>
      </trkpt>
      <trkpt lat="45.77372" lon="0.55873">
        <ele>284.20690917969</ele>
        <time>2010-12-27T12:13:49Z</time>
      </trkpt>
      <trkpt lat="45.77245" lon="0.55912">
        <ele>283.24560546875</ele>
        <time>2010-12-27T12:14:08Z</time>
      </trkpt>
      <trkpt lat="45.77055" lon="0.55967">
        <ele>284.20690917969</ele>
        <time>2010-12-27T12:14:36Z</time>
      </trkpt>
      <trkpt lat="45.76913" lon="0.56008">
        <ele>284.68762207031</ele>
        <time>2010-12-27T12:14:59Z</time>
      </trkpt>
      <trkpt lat="45.76901" lon="0.56012">
        <ele>284.68762207031</ele>
        <time>2010-12-27T12:15:01Z</time>
      </trkpt>
      <trkpt lat="45.76788" lon="0.56045">
        <ele>286.61022949219</ele>
        <time>2010-12-27T12:15:19Z</time>
      </trkpt>
      <trkpt lat="45.7665" lon="0.56085">
        <ele>289.494140625</ele>
        <time>2010-12-27T12:15:41Z</time>
      </trkpt>
      <trkpt lat="45.76507" lon="0.56138">
        <ele>290.93615722656</ele>
        <time>2010-12-27T12:16:04Z</time>
      </trkpt>
      <trkpt lat="45.76381" lon="0.56208">
        <ele>293.82006835938</ele>
        <time>2010-12-27T12:16:26Z</time>
      </trkpt>
      <trkpt lat="45.76296" lon="0.56255">
        <ele>296.22351074219</ele>
        <time>2010-12-27T12:16:42Z</time>
      </trkpt>
      <trkpt lat="45.76194" lon="0.5631">
        <ele>299.58801269531</ele>
        <time>2010-12-27T12:17:03Z</time>
      </trkpt>
      <trkpt lat="45.76109" lon="0.56355">
        <ele>302.95251464844</ele>
        <time>2010-12-27T12:17:21Z</time>
      </trkpt>
      <trkpt lat="45.76014" lon="0.56407">
        <ele>306.31726074219</ele>
        <time>2010-12-27T12:17:42Z</time>
      </trkpt>
      <trkpt lat="45.75944" lon="0.56454">
        <ele>308.23986816406</ele>
        <time>2010-12-27T12:17:58Z</time>
      </trkpt>
      <trkpt lat="45.75863" lon="0.56542">
        <ele>309.68188476562</ele>
        <time>2010-12-27T12:18:17Z</time>
      </trkpt>
      <trkpt lat="45.75828" lon="0.5658">
        <ele>309.68188476562</ele>
        <time>2010-12-27T12:18:25Z</time>
      </trkpt>
      <trkpt lat="45.75756" lon="0.56661">
        <ele>312.56579589844</ele>
        <time>2010-12-27T12:18:43Z</time>
      </trkpt>
      <trkpt lat="45.75685" lon="0.5674">
        <ele>315.44982910156</ele>
        <time>2010-12-27T12:19:01Z</time>
      </trkpt>
      <trkpt lat="45.75627" lon="0.56804">
        <ele>319.77563476562</ele>
        <time>2010-12-27T12:19:17Z</time>
      </trkpt>
      <trkpt lat="45.75578" lon="0.56858">
        <ele>324.58227539062</ele>
        <time>2010-12-27T12:19:32Z</time>
      </trkpt>
      <trkpt lat="45.75568" lon="0.56864">
        <ele>325.54357910156</ele>
        <time>2010-12-27T12:19:37Z</time>
      </trkpt>
      <trkpt lat="45.75559" lon="0.56879">
        <ele>326.02416992188</ele>
        <time>2010-12-27T12:19:41Z</time>
      </trkpt>
      <trkpt lat="45.75557" lon="0.5689">
        <ele>326.02416992188</ele>
        <time>2010-12-27T12:19:43Z</time>
      </trkpt>
      <trkpt lat="45.75558" lon="0.56918">
        <ele>326.5048828125</ele>
        <time>2010-12-27T12:19:47Z</time>
      </trkpt>
      <trkpt lat="45.7556" lon="0.56932">
        <ele>327.46618652344</ele>
        <time>2010-12-27T12:19:49Z</time>
      </trkpt>
      <trkpt lat="45.75559" lon="0.56955">
        <ele>327.94677734375</ele>
        <time>2010-12-27T12:19:52Z</time>
      </trkpt>
      <trkpt lat="45.7555" lon="0.57006">
        <ele>329.86950683594</ele>
        <time>2010-12-27T12:19:59Z</time>
      </trkpt>
      <trkpt lat="45.75544" lon="0.57042">
        <ele>331.3115234375</ele>
        <time>2010-12-27T12:20:04Z</time>
      </trkpt>
      <trkpt lat="45.75541" lon="0.57066">
        <ele>331.3115234375</ele>
        <time>2010-12-27T12:20:08Z</time>
      </trkpt>
      <trkpt lat="45.75514" lon="0.57176">
        <ele>332.27282714844</ele>
        <time>2010-12-27T12:20:24Z</time>
      </trkpt>
      <trkpt lat="45.7549" lon="0.57234">
        <ele>331.79211425781</ele>
        <time>2010-12-27T12:20:32Z</time>
      </trkpt>
      <trkpt lat="45.75412" lon="0.57325">
        <ele>329.38891601562</ele>
        <time>2010-12-27T12:20:47Z</time>
      </trkpt>
      <trkpt lat="45.75392" lon="0.57338">
        <ele>328.90832519531</ele>
        <time>2010-12-27T12:20:50Z</time>
      </trkpt>
      <trkpt lat="45.75218" lon="0.57414">
        <ele>324.58227539062</ele>
        <time>2010-12-27T12:21:16Z</time>
      </trkpt>
      <trkpt lat="45.7508" lon="0.5748">
        <ele>321.2177734375</ele>
        <time>2010-12-27T12:21:35Z</time>
      </trkpt>
      <trkpt lat="45.75073" lon="0.57486">
        <ele>321.69836425781</ele>
        <time>2010-12-27T12:21:36Z</time>
      </trkpt>
      <trkpt lat="45.75047" lon="0.5754">
        <ele>320.73706054688</ele>
        <time>2010-12-27T12:21:42Z</time>
      </trkpt>
      <trkpt lat="45.75022" lon="0.57747">
        <ele>319.29504394531</ele>
        <time>2010-12-27T12:22:02Z</time>
      </trkpt>
      <trkpt lat="45.75007" lon="0.57886">
        <ele>314.0078125</ele>
        <time>2010-12-27T12:22:13Z</time>
      </trkpt>
      <trkpt lat="45.74967" lon="0.5809">
        <ele>307.75927734375</ele>
        <time>2010-12-27T12:22:27Z</time>
      </trkpt>
      <trkpt lat="45.74947" lon="0.58241">
        <ele>305.35595703125</ele>
        <time>2010-12-27T12:22:40Z</time>
      </trkpt>
      <trkpt lat="45.74948" lon="0.58266">
        <ele>304.87524414062</ele>
        <time>2010-12-27T12:22:42Z</time>
      </trkpt>
      <trkpt lat="45.74968" lon="0.58353">
        <ele>301.51062011719</ele>
        <time>2010-12-27T12:22:49Z</time>
      </trkpt>
      <trkpt lat="45.74962" lon="0.58445">
        <ele>296.7041015625</ele>
        <time>2010-12-27T12:22:56Z</time>
      </trkpt>
      <trkpt lat="45.74956" lon="0.58457">
        <ele>296.22351074219</ele>
        <time>2010-12-27T12:22:57Z</time>
      </trkpt>
      <trkpt lat="45.74846" lon="0.58676">
        <ele>291.41674804688</ele>
        <time>2010-12-27T12:23:16Z</time>
      </trkpt>
      <trkpt lat="45.7473" lon="0.58914">
        <ele>287.0908203125</ele>
        <time>2010-12-27T12:23:40Z</time>
      </trkpt>
      <trkpt lat="45.74685" lon="0.59001">
        <ele>286.12951660156</ele>
        <time>2010-12-27T12:23:49Z</time>
      </trkpt>
      <trkpt lat="45.74655" lon="0.59103">
        <ele>285.16821289062</ele>
        <time>2010-12-27T12:23:58Z</time>
      </trkpt>
      <trkpt lat="45.74605" lon="0.59149">
        <ele>282.28430175781</ele>
        <time>2010-12-27T12:24:05Z</time>
      </trkpt>
      <trkpt lat="45.74476" lon="0.59166">
        <ele>283.72619628906</ele>
        <time>2010-12-27T12:24:22Z</time>
      </trkpt>
      <trkpt lat="45.7444" lon="0.59171">
        <ele>284.68762207031</ele>
        <time>2010-12-27T12:24:28Z</time>
      </trkpt>
      <trkpt lat="45.74414" lon="0.59187">
        <ele>284.68762207031</ele>
        <time>2010-12-27T12:24:33Z</time>
      </trkpt>
      <trkpt lat="45.74371" lon="0.59229">
        <ele>286.12951660156</ele>
        <time>2010-12-27T12:24:42Z</time>
      </trkpt>
      <trkpt lat="45.74351" lon="0.59242">
        <ele>287.0908203125</ele>
        <time>2010-12-27T12:24:46Z</time>
      </trkpt>
      <trkpt lat="45.7428" lon="0.59273">
        <ele>289.494140625</ele>
        <time>2010-12-27T12:24:59Z</time>
      </trkpt>
      <trkpt lat="45.742" lon="0.59366">
        <ele>288.05224609375</ele>
        <time>2010-12-27T12:25:15Z</time>
      </trkpt>
      <trkpt lat="45.74104" lon="0.59477">
        <ele>287.0908203125</ele>
        <time>2010-12-27T12:25:32Z</time>
      </trkpt>
      <trkpt lat="45.74012" lon="0.59616">
        <ele>284.20690917969</ele>
        <time>2010-12-27T12:25:49Z</time>
      </trkpt>
      <trkpt lat="45.73909" lon="0.5978">
        <ele>277.95825195312</ele>
        <time>2010-12-27T12:26:07Z</time>
      </trkpt>
      <trkpt lat="45.73792" lon="0.59938">
        <ele>275.07446289062</ele>
        <time>2010-12-27T12:26:25Z</time>
      </trkpt>
      <trkpt lat="45.73657" lon="0.60067">
        <ele>275.07446289062</ele>
        <time>2010-12-27T12:26:45Z</time>
      </trkpt>
      <trkpt lat="45.73591" lon="0.60137">
        <ele>273.15185546875</ele>
        <time>2010-12-27T12:26:55Z</time>
      </trkpt>
      <trkpt lat="45.7353" lon="0.60291">
        <ele>270.74841308594</ele>
        <time>2010-12-27T12:27:08Z</time>
      </trkpt>
      <trkpt lat="45.73487" lon="0.60409">
        <ele>268.34509277344</ele>
        <time>2010-12-27T12:27:20Z</time>
      </trkpt>
      <trkpt lat="45.73409" lon="0.60622">
        <ele>263.05786132812</ele>
        <time>2010-12-27T12:27:38Z</time>
      </trkpt>
      <trkpt lat="45.73324" lon="0.60853">
        <ele>259.21264648438</ele>
        <time>2010-12-27T12:27:58Z</time>
      </trkpt>
      <trkpt lat="45.7326" lon="0.6106">
        <ele>257.77075195312</ele>
        <time>2010-12-27T12:28:17Z</time>
      </trkpt>
      <trkpt lat="45.73234" lon="0.61235">
        <ele>248.63818359375</ele>
        <time>2010-12-27T12:28:29Z</time>
      </trkpt>
      <trkpt lat="45.73222" lon="0.6128">
        <ele>247.19604492188</ele>
        <time>2010-12-27T12:28:32Z</time>
      </trkpt>
      <trkpt lat="45.73176" lon="0.61346">
        <ele>245.75415039062</ele>
        <time>2010-12-27T12:28:38Z</time>
      </trkpt>
      <trkpt lat="45.73014" lon="0.61466">
        <ele>245.2734375</ele>
        <time>2010-12-27T12:28:56Z</time>
      </trkpt>
      <trkpt lat="45.72968" lon="0.61499">
        <ele>247.6767578125</ele>
        <time>2010-12-27T12:29:04Z</time>
      </trkpt>
      <trkpt lat="45.72872" lon="0.61569">
        <ele>248.63818359375</ele>
        <time>2010-12-27T12:29:23Z</time>
      </trkpt>
      <trkpt lat="45.72746" lon="0.61662">
        <ele>249.11877441406</ele>
        <time>2010-12-27T12:29:46Z</time>
      </trkpt>
      <trkpt lat="45.72619" lon="0.61754">
        <ele>245.2734375</ele>
        <time>2010-12-27T12:30:03Z</time>
      </trkpt>
      <trkpt lat="45.725" lon="0.61841">
        <ele>246.71545410156</ele>
        <time>2010-12-27T12:30:21Z</time>
      </trkpt>
      <trkpt lat="45.72409" lon="0.61908">
        <ele>242.3896484375</ele>
        <time>2010-12-27T12:30:35Z</time>
      </trkpt>
      <trkpt lat="45.7234" lon="0.61961">
        <ele>238.54431152344</ele>
        <time>2010-12-27T12:30:44Z</time>
      </trkpt>
      <trkpt lat="45.7232" lon="0.61987">
        <ele>238.06359863281</ele>
        <time>2010-12-27T12:30:47Z</time>
      </trkpt>
      <trkpt lat="45.7228" lon="0.62105">
        <ele>237.10229492188</ele>
        <time>2010-12-27T12:30:58Z</time>
      </trkpt>
      <trkpt lat="45.72211" lon="0.6231">
        <ele>233.25708007812</ele>
        <time>2010-12-27T12:31:17Z</time>
      </trkpt>
      <trkpt lat="45.72159" lon="0.62465">
        <ele>231.33435058594</ele>
        <time>2010-12-27T12:31:31Z</time>
      </trkpt>
      <trkpt lat="45.7214" lon="0.62506">
        <ele>230.373046875</ele>
        <time>2010-12-27T12:31:35Z</time>
      </trkpt>
      <trkpt lat="45.72108" lon="0.62553">
        <ele>229.41174316406</ele>
        <time>2010-12-27T12:31:40Z</time>
      </trkpt>
      <trkpt lat="45.72072" lon="0.62581">
        <ele>227.9697265625</ele>
        <time>2010-12-27T12:31:44Z</time>
      </trkpt>
      <trkpt lat="45.71952" lon="0.62613">
        <ele>217.39538574219</ele>
        <time>2010-12-27T12:31:55Z</time>
      </trkpt>
      <trkpt lat="45.71886" lon="0.62589">
        <ele>210.18542480469</ele>
        <time>2010-12-27T12:32:01Z</time>
      </trkpt>
      <trkpt lat="45.71856" lon="0.62566">
        <ele>207.30139160156</ele>
        <time>2010-12-27T12:32:04Z</time>
      </trkpt>
      <trkpt lat="45.71793" lon="0.62564">
        <ele>203.45617675781</ele>
        <time>2010-12-27T12:32:10Z</time>
      </trkpt>
      <trkpt lat="45.71779" lon="0.6262">
        <ele>201.05285644531</ele>
        <time>2010-12-27T12:32:14Z</time>
      </trkpt>
      <trkpt lat="45.71778" lon="0.6265">
        <ele>200.572265625</ele>
        <time>2010-12-27T12:32:16Z</time>
      </trkpt>
      <trkpt lat="45.71741" lon="0.62701">
        <ele>197.20751953125</ele>
        <time>2010-12-27T12:32:21Z</time>
      </trkpt>
      <trkpt lat="45.71721" lon="0.62713">
        <ele>196.24633789062</ele>
        <time>2010-12-27T12:32:23Z</time>
      </trkpt>
      <trkpt lat="45.71676" lon="0.62793">
        <ele>192.88171386719</ele>
        <time>2010-12-27T12:32:30Z</time>
      </trkpt>
      <trkpt lat="45.71634" lon="0.62768">
        <ele>189.03637695312</ele>
        <time>2010-12-27T12:32:34Z</time>
      </trkpt>
      <trkpt lat="45.71623" lon="0.62742">
        <ele>188.07507324219</ele>
        <time>2010-12-27T12:32:36Z</time>
      </trkpt>
      <trkpt lat="45.71565" lon="0.62681">
        <ele>184.22985839844</ele>
        <time>2010-12-27T12:32:43Z</time>
      </trkpt>
      <trkpt lat="45.71521" lon="0.62724">
        <ele>180.865234375</ele>
        <time>2010-12-27T12:32:48Z</time>
      </trkpt>
      <trkpt lat="45.71513" lon="0.62773">
        <ele>177.98120117188</ele>
        <time>2010-12-27T12:32:51Z</time>
      </trkpt>
      <trkpt lat="45.7151" lon="0.62825">
        <ele>175.57788085938</ele>
        <time>2010-12-27T12:32:54Z</time>
      </trkpt>
      <trkpt lat="45.7146" lon="0.62972">
        <ele>171.73266601562</ele>
        <time>2010-12-27T12:33:04Z</time>
      </trkpt>
      <trkpt lat="45.71445" lon="0.63011">
        <ele>172.21325683594</ele>
        <time>2010-12-27T12:33:07Z</time>
      </trkpt>
      <trkpt lat="45.71397" lon="0.63056">
        <ele>176.05859375</ele>
        <time>2010-12-27T12:33:14Z</time>
      </trkpt>
      <trkpt lat="45.71386" lon="0.63052">
        <ele>177.50061035156</ele>
        <time>2010-12-27T12:33:16Z</time>
      </trkpt>
      <trkpt lat="45.71376" lon="0.63046">
        <ele>178.4619140625</ele>
        <time>2010-12-27T12:33:18Z</time>
      </trkpt>
      <trkpt lat="45.71354" lon="0.6302">
        <ele>181.82641601562</ele>
        <time>2010-12-27T12:33:24Z</time>
      </trkpt>
      <trkpt lat="45.71322" lon="0.62983">
        <ele>185.67175292969</ele>
        <time>2010-12-27T12:33:33Z</time>
      </trkpt>
      <trkpt lat="45.71311" lon="0.62974">
        <ele>186.63317871094</ele>
        <time>2010-12-27T12:33:36Z</time>
      </trkpt>
      <trkpt lat="45.71294" lon="0.62973">
        <ele>187.59436035156</ele>
        <time>2010-12-27T12:33:40Z</time>
      </trkpt>
      <trkpt lat="45.71262" lon="0.6301">
        <ele>192.40112304688</ele>
        <time>2010-12-27T12:33:51Z</time>
      </trkpt>
      <trkpt lat="45.71238" lon="0.63057">
        <ele>199.61083984375</ele>
        <time>2010-12-27T12:34:03Z</time>
      </trkpt>
      <trkpt lat="45.71201" lon="0.63133">
        <ele>198.64953613281</ele>
        <time>2010-12-27T12:34:18Z</time>
      </trkpt>
      <trkpt lat="45.71191" lon="0.63146">
        <ele>199.13012695312</ele>
        <time>2010-12-27T12:34:21Z</time>
      </trkpt>
      <trkpt lat="45.71172" lon="0.63161">
        <ele>199.61083984375</ele>
        <time>2010-12-27T12:34:26Z</time>
      </trkpt>
      <trkpt lat="45.71147" lon="0.63176">
        <ele>201.05285644531</ele>
        <time>2010-12-27T12:34:32Z</time>
      </trkpt>
      <trkpt lat="45.71131" lon="0.63186">
        <ele>201.53356933594</ele>
        <time>2010-12-27T12:34:36Z</time>
      </trkpt>
      <trkpt lat="45.71118" lon="0.63203">
        <ele>202.97546386719</ele>
        <time>2010-12-27T12:34:40Z</time>
      </trkpt>
      <trkpt lat="45.71104" lon="0.63242">
        <ele>203.93688964844</ele>
        <time>2010-12-27T12:34:47Z</time>
      </trkpt>
      <trkpt lat="45.711" lon="0.63259">
        <ele>203.93688964844</ele>
        <time>2010-12-27T12:34:50Z</time>
      </trkpt>
      <trkpt lat="45.71093" lon="0.63284">
        <ele>204.41748046875</ele>
        <time>2010-12-27T12:34:54Z</time>
      </trkpt>
      <trkpt lat="45.71085" lon="0.63319">
        <ele>205.37878417969</ele>
        <time>2010-12-27T12:35:00Z</time>
      </trkpt>
      <trkpt lat="45.71068" lon="0.63346">
        <ele>206.34008789062</ele>
        <time>2010-12-27T12:35:06Z</time>
      </trkpt>
      <trkpt lat="45.71005" lon="0.63406">
        <ele>209.70483398438</ele>
        <time>2010-12-27T12:35:25Z</time>
      </trkpt>
      <trkpt lat="45.70981" lon="0.63444">
        <ele>210.666015625</ele>
        <time>2010-12-27T12:35:33Z</time>
      </trkpt>
      <trkpt lat="45.7097" lon="0.63517">
        <ele>212.58862304688</ele>
        <time>2010-12-27T12:35:46Z</time>
      </trkpt>
      <trkpt lat="45.70953" lon="0.63559">
        <ele>213.55004882812</ele>
        <time>2010-12-27T12:35:53Z</time>
      </trkpt>
      <trkpt lat="45.70937" lon="0.63574">
        <ele>214.51123046875</ele>
        <time>2010-12-27T12:35:57Z</time>
      </trkpt>
      <trkpt lat="45.70927" lon="0.63587">
        <ele>215.47265625</ele>
        <time>2010-12-27T12:36:00Z</time>
      </trkpt>
      <trkpt lat="45.70909" lon="0.63634">
        <ele>216.91467285156</ele>
        <time>2010-12-27T12:36:08Z</time>
      </trkpt>
      <trkpt lat="45.70877" lon="0.63649">
        <ele>218.35656738281</ele>
        <time>2010-12-27T12:36:16Z</time>
      </trkpt>
      <trkpt lat="45.70872" lon="0.63647">
        <ele>218.35656738281</ele>
        <time>2010-12-27T12:36:17Z</time>
      </trkpt>
      <trkpt lat="45.70846" lon="0.63631">
        <ele>219.79858398438</ele>
        <time>2010-12-27T12:36:23Z</time>
      </trkpt>
      <trkpt lat="45.7083" lon="0.63616">
        <ele>220.75988769531</ele>
        <time>2010-12-27T12:36:27Z</time>
      </trkpt>
      <trkpt lat="45.70818" lon="0.63593">
        <ele>221.24060058594</ele>
        <time>2010-12-27T12:36:31Z</time>
      </trkpt>
      <trkpt lat="45.70808" lon="0.6356">
        <ele>220.75988769531</ele>
        <time>2010-12-27T12:36:36Z</time>
      </trkpt>
      <trkpt lat="45.70774" lon="0.63527">
        <ele>223.64379882812</ele>
        <time>2010-12-27T12:36:45Z</time>
      </trkpt>
      <trkpt lat="45.70724" lon="0.63537">
        <ele>226.04711914062</ele>
        <time>2010-12-27T12:36:56Z</time>
      </trkpt>
      <trkpt lat="45.70692" lon="0.63548">
        <ele>227.9697265625</ele>
        <time>2010-12-27T12:37:03Z</time>
      </trkpt>
      <trkpt lat="45.70618" lon="0.63548">
        <ele>231.33435058594</ele>
        <time>2010-12-27T12:37:20Z</time>
      </trkpt>
      <trkpt lat="45.70601" lon="0.63545">
        <ele>231.81494140625</ele>
        <time>2010-12-27T12:37:24Z</time>
      </trkpt>
      <trkpt lat="45.70588" lon="0.63543">
        <ele>232.29577636719</ele>
        <time>2010-12-27T12:37:27Z</time>
      </trkpt>
      <trkpt lat="45.7053" lon="0.63538">
        <ele>236.14099121094</ele>
        <time>2010-12-27T12:37:41Z</time>
      </trkpt>
      <trkpt lat="45.70494" lon="0.63556">
        <ele>237.10229492188</ele>
        <time>2010-12-27T12:37:50Z</time>
      </trkpt>
      <trkpt lat="45.70478" lon="0.63572">
        <ele>238.54431152344</ele>
        <time>2010-12-27T12:37:54Z</time>
      </trkpt>
      <trkpt lat="45.7046" lon="0.63596">
        <ele>238.06359863281</ele>
        <time>2010-12-27T12:37:59Z</time>
      </trkpt>
      <trkpt lat="45.70433" lon="0.6366">
        <ele>239.98620605469</ele>
        <time>2010-12-27T12:38:08Z</time>
      </trkpt>
      <trkpt lat="45.70414" lon="0.63694">
        <ele>240.46704101562</ele>
        <time>2010-12-27T12:38:13Z</time>
      </trkpt>
      <trkpt lat="45.70336" lon="0.63769">
        <ele>243.83154296875</ele>
        <time>2010-12-27T12:38:30Z</time>
      </trkpt>
      <trkpt lat="45.70259" lon="0.63837">
        <ele>247.6767578125</ele>
        <time>2010-12-27T12:38:49Z</time>
      </trkpt>
      <trkpt lat="45.70254" lon="0.6384">
        <ele>247.6767578125</ele>
        <time>2010-12-27T12:38:50Z</time>
      </trkpt>
      <trkpt lat="45.70218" lon="0.63853">
        <ele>248.63818359375</ele>
        <time>2010-12-27T12:38:57Z</time>
      </trkpt>
      <trkpt lat="45.70186" lon="0.63854">
        <ele>248.15759277344</ele>
        <time>2010-12-27T12:39:03Z</time>
      </trkpt>
      <trkpt lat="45.70111" lon="0.63853">
        <ele>248.15759277344</ele>
        <time>2010-12-27T12:39:17Z</time>
      </trkpt>
      <trkpt lat="45.70093" lon="0.63854">
        <ele>248.63818359375</ele>
        <time>2010-12-27T12:39:20Z</time>
      </trkpt>
      <trkpt lat="45.70005" lon="0.6391">
        <ele>249.11877441406</ele>
        <time>2010-12-27T12:39:35Z</time>
      </trkpt>
      <trkpt lat="45.69931" lon="0.63951">
        <ele>246.71545410156</ele>
        <time>2010-12-27T12:39:45Z</time>
      </trkpt>
      <trkpt lat="45.69807" lon="0.64014">
        <ele>244.79284667969</ele>
        <time>2010-12-27T12:40:00Z</time>
      </trkpt>
      <trkpt lat="45.69731" lon="0.6406">
        <ele>246.71545410156</ele>
        <time>2010-12-27T12:40:13Z</time>
      </trkpt>
      <trkpt lat="45.6963" lon="0.64125">
        <ele>252.96398925781</ele>
        <time>2010-12-27T12:40:34Z</time>
      </trkpt>
      <trkpt lat="45.69602" lon="0.64127">
        <ele>253.44470214844</ele>
        <time>2010-12-27T12:40:39Z</time>
      </trkpt>
      <trkpt lat="45.69454" lon="0.64093">
        <ele>250.56079101562</ele>
        <time>2010-12-27T12:41:01Z</time>
      </trkpt>
      <trkpt lat="45.6932" lon="0.64062">
        <ele>245.75415039062</ele>
        <time>2010-12-27T12:41:20Z</time>
      </trkpt>
      <trkpt lat="45.69305" lon="0.6406">
        <ele>246.23486328125</ele>
        <time>2010-12-27T12:41:22Z</time>
      </trkpt>
      <trkpt lat="45.6925" lon="0.64093">
        <ele>246.23486328125</ele>
        <time>2010-12-27T12:41:30Z</time>
      </trkpt>
      <trkpt lat="45.6922" lon="0.64128">
        <ele>247.19604492188</ele>
        <time>2010-12-27T12:41:35Z</time>
      </trkpt>
      <trkpt lat="45.69194" lon="0.64149">
        <ele>247.19604492188</ele>
        <time>2010-12-27T12:41:39Z</time>
      </trkpt>
      <trkpt lat="45.69096" lon="0.64176">
        <ele>244.79284667969</ele>
        <time>2010-12-27T12:41:51Z</time>
      </trkpt>
      <trkpt lat="45.68922" lon="0.64185">
        <ele>233.25708007812</ele>
        <time>2010-12-27T12:42:09Z</time>
      </trkpt>
      <trkpt lat="45.68901" lon="0.64184">
        <ele>231.81494140625</ele>
        <time>2010-12-27T12:42:11Z</time>
      </trkpt>
      <trkpt lat="45.68797" lon="0.64147">
        <ele>223.16320800781</ele>
        <time>2010-12-27T12:42:21Z</time>
      </trkpt>
      <trkpt lat="45.68741" lon="0.64157">
        <ele>219.31799316406</ele>
        <time>2010-12-27T12:42:26Z</time>
      </trkpt>
      <trkpt lat="45.68686" lon="0.6419">
        <ele>215.47265625</ele>
        <time>2010-12-27T12:42:31Z</time>
      </trkpt>
      <trkpt lat="45.68655" lon="0.64218">
        <ele>213.55004882812</ele>
        <time>2010-12-27T12:42:34Z</time>
      </trkpt>
      <trkpt lat="45.6861" lon="0.64238">
        <ele>210.18542480469</ele>
        <time>2010-12-27T12:42:38Z</time>
      </trkpt>
      <trkpt lat="45.68549" lon="0.64256">
        <ele>205.85949707031</ele>
        <time>2010-12-27T12:42:43Z</time>
      </trkpt>
      <trkpt lat="45.68489" lon="0.64239">
        <ele>201.05285644531</ele>
        <time>2010-12-27T12:42:49Z</time>
      </trkpt>
      <trkpt lat="45.68483" lon="0.64226">
        <ele>200.09167480469</ele>
        <time>2010-12-27T12:42:50Z</time>
      </trkpt>
      <trkpt lat="45.68468" lon="0.64203">
        <ele>198.1689453125</ele>
        <time>2010-12-27T12:42:52Z</time>
      </trkpt>
      <trkpt lat="45.68419" lon="0.64158">
        <ele>193.3623046875</ele>
        <time>2010-12-27T12:42:57Z</time>
      </trkpt>
      <trkpt lat="45.68402" lon="0.64135">
        <ele>192.40112304688</ele>
        <time>2010-12-27T12:42:59Z</time>
      </trkpt>
      <trkpt lat="45.68332" lon="0.64123">
        <ele>188.07507324219</ele>
        <time>2010-12-27T12:43:05Z</time>
      </trkpt>
      <trkpt lat="45.6832" lon="0.6413">
        <ele>187.11376953125</ele>
        <time>2010-12-27T12:43:06Z</time>
      </trkpt>
      <trkpt lat="45.68298" lon="0.64144">
        <ele>186.15246582031</ele>
        <time>2010-12-27T12:43:08Z</time>
      </trkpt>
      <trkpt lat="45.6825" lon="0.64157">
        <ele>181.82641601562</ele>
        <time>2010-12-27T12:43:12Z</time>
      </trkpt>
      <trkpt lat="45.6821" lon="0.64197">
        <ele>177.02001953125</ele>
        <time>2010-12-27T12:43:16Z</time>
      </trkpt>
      <trkpt lat="45.68194" lon="0.64224">
        <ele>173.6552734375</ele>
        <time>2010-12-27T12:43:18Z</time>
      </trkpt>
      <trkpt lat="45.68145" lon="0.64249">
        <ele>167.40673828125</ele>
        <time>2010-12-27T12:43:23Z</time>
      </trkpt>
      <trkpt lat="45.68004" lon="0.64226">
        <ele>159.71618652344</ele>
        <time>2010-12-27T12:43:35Z</time>
      </trkpt>
      <trkpt lat="45.67906" lon="0.64212">
        <ele>164.04211425781</ele>
        <time>2010-12-27T12:43:47Z</time>
      </trkpt>
      <trkpt lat="45.67876" lon="0.64212">
        <ele>165.48413085938</ele>
        <time>2010-12-27T12:43:52Z</time>
      </trkpt>
      <trkpt lat="45.67803" lon="0.64231">
        <ele>167.88732910156</ele>
        <time>2010-12-27T12:44:06Z</time>
      </trkpt>
      <trkpt lat="45.67792" lon="0.64231">
        <ele>167.88732910156</ele>
        <time>2010-12-27T12:44:08Z</time>
      </trkpt>
      <trkpt lat="45.67692" lon="0.64211">
        <ele>164.52270507812</ele>
        <time>2010-12-27T12:44:25Z</time>
      </trkpt>
      <trkpt lat="45.67672" lon="0.64207">
        <ele>164.52270507812</ele>
        <time>2010-12-27T12:44:28Z</time>
      </trkpt>
      <trkpt lat="45.6766" lon="0.6422">
        <ele>165.48413085938</ele>
        <time>2010-12-27T12:44:32Z</time>
      </trkpt>
      <trkpt lat="45.67658" lon="0.64238">
        <ele>166.4453125</ele>
        <time>2010-12-27T12:44:35Z</time>
      </trkpt>
      <trkpt lat="45.67642" lon="0.64263">
        <ele>167.40673828125</ele>
        <time>2010-12-27T12:44:40Z</time>
      </trkpt>
      <trkpt lat="45.67629" lon="0.6428">
        <ele>169.32946777344</ele>
        <time>2010-12-27T12:44:44Z</time>
      </trkpt>
      <trkpt lat="45.67625" lon="0.64291">
        <ele>170.29064941406</ele>
        <time>2010-12-27T12:44:46Z</time>
      </trkpt>
      <trkpt lat="45.67615" lon="0.64328">
        <ele>173.17468261719</ele>
        <time>2010-12-27T12:44:53Z</time>
      </trkpt>
      <trkpt lat="45.67603" lon="0.6442">
        <ele>174.61657714844</ele>
        <time>2010-12-27T12:45:10Z</time>
      </trkpt>
      <trkpt lat="45.67587" lon="0.64486">
        <ele>177.98120117188</ele>
        <time>2010-12-27T12:45:23Z</time>
      </trkpt>
      <trkpt lat="45.67582" lon="0.64501">
        <ele>178.4619140625</ele>
        <time>2010-12-27T12:45:26Z</time>
      </trkpt>
      <trkpt lat="45.67573" lon="0.64522">
        <ele>179.90380859375</ele>
        <time>2010-12-27T12:45:30Z</time>
      </trkpt>
      <trkpt lat="45.67562" lon="0.64541">
        <ele>179.90380859375</ele>
        <time>2010-12-27T12:45:34Z</time>
      </trkpt>
      <trkpt lat="45.67549" lon="0.64557">
        <ele>181.34582519531</ele>
        <time>2010-12-27T12:45:38Z</time>
      </trkpt>
      <trkpt lat="45.67526" lon="0.64573">
        <ele>180.865234375</ele>
        <time>2010-12-27T12:45:44Z</time>
      </trkpt>
      <trkpt lat="45.67486" lon="0.64582">
        <ele>179.90380859375</ele>
        <time>2010-12-27T12:45:52Z</time>
      </trkpt>
      <trkpt lat="45.67368" lon="0.64593">
        <ele>180.38452148438</ele>
        <time>2010-12-27T12:46:11Z</time>
      </trkpt>
      <trkpt lat="45.6734" lon="0.64595">
        <ele>181.34582519531</ele>
        <time>2010-12-27T12:46:16Z</time>
      </trkpt>
      <trkpt lat="45.67267" lon="0.64575">
        <ele>186.15246582031</ele>
        <time>2010-12-27T12:46:32Z</time>
      </trkpt>
      <trkpt lat="45.67222" lon="0.64557">
        <ele>189.03637695312</ele>
        <time>2010-12-27T12:46:43Z</time>
      </trkpt>
      <trkpt lat="45.67156" lon="0.64524">
        <ele>190.47839355469</ele>
        <time>2010-12-27T12:47:00Z</time>
      </trkpt>
      <trkpt lat="45.67143" lon="0.64515">
        <ele>190.958984375</ele>
        <time>2010-12-27T12:47:03Z</time>
      </trkpt>
      <trkpt lat="45.67132" lon="0.64506">
        <ele>191.43957519531</ele>
        <time>2010-12-27T12:47:06Z</time>
      </trkpt>
      <trkpt lat="45.67074" lon="0.64468">
        <ele>197.20751953125</ele>
        <time>2010-12-27T12:47:22Z</time>
      </trkpt>
      <trkpt lat="45.67018" lon="0.64451">
        <ele>202.97546386719</ele>
        <time>2010-12-27T12:47:38Z</time>
      </trkpt>
      <trkpt lat="45.66971" lon="0.6446">
        <ele>206.34008789062</ele>
        <time>2010-12-27T12:47:51Z</time>
      </trkpt>
      <trkpt lat="45.66922" lon="0.64505">
        <ele>208.74340820312</ele>
        <time>2010-12-27T12:48:07Z</time>
      </trkpt>
      <trkpt lat="45.66864" lon="0.64568">
        <ele>212.58862304688</ele>
        <time>2010-12-27T12:48:25Z</time>
      </trkpt>
      <trkpt lat="45.66849" lon="0.6458">
        <ele>213.0693359375</ele>
        <time>2010-12-27T12:48:29Z</time>
      </trkpt>
      <trkpt lat="45.66778" lon="0.64647">
        <ele>216.43395996094</ele>
        <time>2010-12-27T12:48:50Z</time>
      </trkpt>
      <trkpt lat="45.66771" lon="0.64653">
        <ele>216.91467285156</ele>
        <time>2010-12-27T12:48:52Z</time>
      </trkpt>
      <trkpt lat="45.66757" lon="0.64666">
        <ele>217.39538574219</ele>
        <time>2010-12-27T12:48:56Z</time>
      </trkpt>
      <trkpt lat="45.66748" lon="0.64685">
        <ele>218.35656738281</ele>
        <time>2010-12-27T12:49:00Z</time>
      </trkpt>
      <trkpt lat="45.66743" lon="0.64703">
        <ele>218.83728027344</ele>
        <time>2010-12-27T12:49:03Z</time>
      </trkpt>
      <trkpt lat="45.66739" lon="0.64759">
        <ele>221.72119140625</ele>
        <time>2010-12-27T12:49:12Z</time>
      </trkpt>
      <trkpt lat="45.66716" lon="0.64806">
        <ele>224.60522460938</ele>
        <time>2010-12-27T12:49:21Z</time>
      </trkpt>
      <trkpt lat="45.66666" lon="0.64831">
        <ele>224.60522460938</ele>
        <time>2010-12-27T12:49:32Z</time>
      </trkpt>
      <trkpt lat="45.66577" lon="0.64852">
        <ele>227.9697265625</ele>
        <time>2010-12-27T12:49:48Z</time>
      </trkpt>
      <trkpt lat="45.66523" lon="0.64873">
        <ele>229.41174316406</ele>
        <time>2010-12-27T12:49:58Z</time>
      </trkpt>
      <trkpt lat="45.6645" lon="0.64965">
        <ele>232.29577636719</ele>
        <time>2010-12-27T12:50:16Z</time>
      </trkpt>
      <trkpt lat="45.66409" lon="0.65032">
        <ele>238.06359863281</ele>
        <time>2010-12-27T12:50:29Z</time>
      </trkpt>
      <trkpt lat="45.66402" lon="0.65073">
        <ele>239.98620605469</ele>
        <time>2010-12-27T12:50:35Z</time>
      </trkpt>
      <trkpt lat="45.66386" lon="0.65207">
        <ele>240.94763183594</ele>
        <time>2010-12-27T12:50:53Z</time>
      </trkpt>
      <trkpt lat="45.66337" lon="0.65315">
        <ele>238.06359863281</ele>
        <time>2010-12-27T12:51:07Z</time>
      </trkpt>
      <trkpt lat="45.66319" lon="0.65344">
        <ele>238.54431152344</ele>
        <time>2010-12-27T12:51:11Z</time>
      </trkpt>
      <trkpt lat="45.66303" lon="0.65361">
        <ele>238.54431152344</ele>
        <time>2010-12-27T12:51:14Z</time>
      </trkpt>
      <trkpt lat="45.66273" lon="0.65378">
        <ele>239.50549316406</ele>
        <time>2010-12-27T12:51:19Z</time>
      </trkpt>
      <trkpt lat="45.66235" lon="0.6538">
        <ele>239.98620605469</ele>
        <time>2010-12-27T12:51:25Z</time>
      </trkpt>
      <trkpt lat="45.66192" lon="0.65362">
        <ele>240.94763183594</ele>
        <time>2010-12-27T12:51:32Z</time>
      </trkpt>
      <trkpt lat="45.6615" lon="0.65352">
        <ele>241.42822265625</ele>
        <time>2010-12-27T12:51:39Z</time>
      </trkpt>
      <trkpt lat="45.6613" lon="0.65355">
        <ele>241.42822265625</ele>
        <time>2010-12-27T12:51:42Z</time>
      </trkpt>
      <trkpt lat="45.66112" lon="0.65363">
        <ele>241.42822265625</ele>
        <time>2010-12-27T12:51:45Z</time>
      </trkpt>
      <trkpt lat="45.66089" lon="0.6539">
        <ele>242.87023925781</ele>
        <time>2010-12-27T12:51:50Z</time>
      </trkpt>
      <trkpt lat="45.6607" lon="0.65427">
        <ele>244.31225585938</ele>
        <time>2010-12-27T12:51:56Z</time>
      </trkpt>
      <trkpt lat="45.66053" lon="0.65474">
        <ele>244.79284667969</ele>
        <time>2010-12-27T12:52:03Z</time>
      </trkpt>
      <trkpt lat="45.66034" lon="0.65496">
        <ele>244.79284667969</ele>
        <time>2010-12-27T12:52:08Z</time>
      </trkpt>
      <trkpt lat="45.66014" lon="0.65503">
        <ele>246.71545410156</ele>
        <time>2010-12-27T12:52:12Z</time>
      </trkpt>
      <trkpt lat="45.65971" lon="0.6551">
        <ele>246.71545410156</ele>
        <time>2010-12-27T12:52:20Z</time>
      </trkpt>
      <trkpt lat="45.65933" lon="0.65493">
        <ele>245.2734375</ele>
        <time>2010-12-27T12:52:26Z</time>
      </trkpt>
      <trkpt lat="45.658" lon="0.65398">
        <ele>243.83154296875</ele>
        <time>2010-12-27T12:52:46Z</time>
      </trkpt>
      <trkpt lat="45.65793" lon="0.65395">
        <ele>243.83154296875</ele>
        <time>2010-12-27T12:52:47Z</time>
      </trkpt>
      <trkpt lat="45.65757" lon="0.65397">
        <ele>244.31225585938</ele>
        <time>2010-12-27T12:52:52Z</time>
      </trkpt>
      <trkpt lat="45.65681" lon="0.65451">
        <ele>249.11877441406</ele>
        <time>2010-12-27T12:53:06Z</time>
      </trkpt>
      <trkpt lat="45.65598" lon="0.65513">
        <ele>256.32873535156</ele>
        <time>2010-12-27T12:53:23Z</time>
      </trkpt>
      <trkpt lat="45.65515" lon="0.65567">
        <ele>261.61596679688</ele>
        <time>2010-12-27T12:53:40Z</time>
      </trkpt>
      <trkpt lat="45.65472" lon="0.65595">
        <ele>263.05786132812</ele>
        <time>2010-12-27T12:53:48Z</time>
      </trkpt>
      <trkpt lat="45.65396" lon="0.65639">
        <ele>260.65454101562</ele>
        <time>2010-12-27T12:54:02Z</time>
      </trkpt>
      <trkpt lat="45.65346" lon="0.65668">
        <ele>259.693359375</ele>
        <time>2010-12-27T12:54:10Z</time>
      </trkpt>
      <trkpt lat="45.65234" lon="0.6569">
        <ele>261.61596679688</ele>
        <time>2010-12-27T12:54:27Z</time>
      </trkpt>
      <trkpt lat="45.65144" lon="0.65708">
        <ele>264.49987792969</ele>
        <time>2010-12-27T12:54:43Z</time>
      </trkpt>
      <trkpt lat="45.65045" lon="0.65724">
        <ele>268.34509277344</ele>
        <time>2010-12-27T12:55:02Z</time>
      </trkpt>
      <trkpt lat="45.64983" lon="0.65746">
        <ele>268.82580566406</ele>
        <time>2010-12-27T12:55:14Z</time>
      </trkpt>
      <trkpt lat="45.6492" lon="0.65801">
        <ele>273.15185546875</ele>
        <time>2010-12-27T12:55:29Z</time>
      </trkpt>
      <trkpt lat="45.64904" lon="0.65823">
        <ele>275.55505371094</ele>
        <time>2010-12-27T12:55:33Z</time>
      </trkpt>
      <trkpt lat="45.64887" lon="0.65886">
        <ele>276.51635742188</ele>
        <time>2010-12-27T12:55:42Z</time>
      </trkpt>
      <trkpt lat="45.64878" lon="0.65905">
        <ele>277.95825195312</ele>
        <time>2010-12-27T12:55:45Z</time>
      </trkpt>
      <trkpt lat="45.64817" lon="0.65985">
        <ele>279.40026855469</ele>
        <time>2010-12-27T12:56:00Z</time>
      </trkpt>
      <trkpt lat="45.64791" lon="0.66009">
        <ele>275.55505371094</ele>
        <time>2010-12-27T12:56:06Z</time>
      </trkpt>
      <trkpt lat="45.64694" lon="0.66086">
        <ele>268.82580566406</ele>
        <time>2010-12-27T12:56:20Z</time>
      </trkpt>
      <trkpt lat="45.64608" lon="0.66198">
        <ele>271.70971679688</ele>
        <time>2010-12-27T12:56:34Z</time>
      </trkpt>
      <trkpt lat="45.64536" lon="0.66291">
        <ele>277.95825195312</ele>
        <time>2010-12-27T12:56:46Z</time>
      </trkpt>
      <trkpt lat="45.64491" lon="0.6634">
        <ele>281.32299804688</ele>
        <time>2010-12-27T12:56:53Z</time>
      </trkpt>
      <trkpt lat="45.64474" lon="0.66358">
        <ele>282.28430175781</ele>
        <time>2010-12-27T12:56:56Z</time>
      </trkpt>
      <trkpt lat="45.64454" lon="0.66379">
        <ele>283.24560546875</ele>
        <time>2010-12-27T12:57:00Z</time>
      </trkpt>
      <trkpt lat="45.64394" lon="0.66434">
        <ele>286.12951660156</ele>
        <time>2010-12-27T12:57:13Z</time>
      </trkpt>
      <trkpt lat="45.64338" lon="0.66469">
        <ele>294.78137207031</ele>
        <time>2010-12-27T12:57:24Z</time>
      </trkpt>
      <trkpt lat="45.64276" lon="0.66483">
        <ele>300.54931640625</ele>
        <time>2010-12-27T12:57:35Z</time>
      </trkpt>
      <trkpt lat="45.64244" lon="0.6648">
        <ele>299.10729980469</ele>
        <time>2010-12-27T12:57:40Z</time>
      </trkpt>
      <trkpt lat="45.64162" lon="0.66425">
        <ele>283.24560546875</ele>
        <time>2010-12-27T12:57:51Z</time>
      </trkpt>
      <trkpt lat="45.64078" lon="0.66346">
        <ele>275.07446289062</ele>
        <time>2010-12-27T12:58:02Z</time>
      </trkpt>
      <trkpt lat="45.63937" lon="0.66272">
        <ele>268.82580566406</ele>
        <time>2010-12-27T12:58:18Z</time>
      </trkpt>
      <trkpt lat="45.63809" lon="0.66206">
        <ele>268.34509277344</ele>
        <time>2010-12-27T12:58:33Z</time>
      </trkpt>
      <trkpt lat="45.63661" lon="0.66134">
        <ele>264.49987792969</ele>
        <time>2010-12-27T12:58:50Z</time>
      </trkpt>
      <trkpt lat="45.63569" lon="0.66109">
        <ele>267.86450195312</ele>
        <time>2010-12-27T12:59:02Z</time>
      </trkpt>
      <trkpt lat="45.63562" lon="0.6611">
        <ele>267.86450195312</ele>
        <time>2010-12-27T12:59:03Z</time>
      </trkpt>
      <trkpt lat="45.63476" lon="0.66138">
        <ele>270.74841308594</ele>
        <time>2010-12-27T12:59:18Z</time>
      </trkpt>
      <trkpt lat="45.63425" lon="0.66155">
        <ele>273.63244628906</ele>
        <time>2010-12-27T12:59:29Z</time>
      </trkpt>
      <trkpt lat="45.63386" lon="0.66171">
        <ele>277.47766113281</ele>
        <time>2010-12-27T12:59:38Z</time>
      </trkpt>
      <trkpt lat="45.63362" lon="0.66177">
        <ele>277.47766113281</ele>
        <time>2010-12-27T12:59:44Z</time>
      </trkpt>
      <trkpt lat="45.63298" lon="0.662">
        <ele>277.95825195312</ele>
        <time>2010-12-27T12:59:59Z</time>
      </trkpt>
      <trkpt lat="45.63279" lon="0.662">
        <ele>278.43896484375</ele>
        <time>2010-12-27T13:00:03Z</time>
      </trkpt>
      <trkpt lat="45.63246" lon="0.66188">
        <ele>280.36169433594</ele>
        <time>2010-12-27T13:00:13Z</time>
      </trkpt>
      <trkpt lat="45.63231" lon="0.66176">
        <ele>280.36169433594</ele>
        <time>2010-12-27T13:00:17Z</time>
      </trkpt>
      <trkpt lat="45.63183" lon="0.66098">
        <ele>278.43896484375</ele>
        <time>2010-12-27T13:00:34Z</time>
      </trkpt>
      <trkpt lat="45.63124" lon="0.66007">
        <ele>277.95825195312</ele>
        <time>2010-12-27T13:00:47Z</time>
      </trkpt>
      <trkpt lat="45.63015" lon="0.65838">
        <ele>277.47766113281</ele>
        <time>2010-12-27T13:01:07Z</time>
      </trkpt>
      <trkpt lat="45.6293" lon="0.65706">
        <ele>279.880859375</ele>
        <time>2010-12-27T13:01:25Z</time>
      </trkpt>
      <trkpt lat="45.62927" lon="0.65701">
        <ele>279.880859375</ele>
        <time>2010-12-27T13:01:26Z</time>
      </trkpt>
      <trkpt lat="45.62911" lon="0.65683">
        <ele>280.84240722656</ele>
        <time>2010-12-27T13:01:31Z</time>
      </trkpt>
      <trkpt lat="45.62899" lon="0.65683">
        <ele>281.80358886719</ele>
        <time>2010-12-27T13:01:34Z</time>
      </trkpt>
      <trkpt lat="45.62816" lon="0.65676">
        <ele>281.80358886719</ele>
        <time>2010-12-27T13:01:51Z</time>
      </trkpt>
      <trkpt lat="45.62733" lon="0.65668">
        <ele>281.32299804688</ele>
        <time>2010-12-27T13:02:03Z</time>
      </trkpt>
      <trkpt lat="45.6263" lon="0.65699">
        <ele>276.03564453125</ele>
        <time>2010-12-27T13:02:18Z</time>
      </trkpt>
      <trkpt lat="45.62525" lon="0.65777">
        <ele>270.74841308594</ele>
        <time>2010-12-27T13:02:33Z</time>
      </trkpt>
      <trkpt lat="45.62512" lon="0.65791">
        <ele>270.26770019531</ele>
        <time>2010-12-27T13:02:35Z</time>
      </trkpt>
      <trkpt lat="45.62459" lon="0.65798">
        <ele>267.38391113281</ele>
        <time>2010-12-27T13:02:42Z</time>
      </trkpt>
      <trkpt lat="45.62445" lon="0.65787">
        <ele>267.38391113281</ele>
        <time>2010-12-27T13:02:44Z</time>
      </trkpt>
      <trkpt lat="45.62417" lon="0.65771">
        <ele>264.98059082031</ele>
        <time>2010-12-27T13:02:48Z</time>
      </trkpt>
      <trkpt lat="45.62397" lon="0.6574">
        <ele>263.53857421875</ele>
        <time>2010-12-27T13:02:52Z</time>
      </trkpt>
      <trkpt lat="45.62397" lon="0.65708">
        <ele>262.5771484375</ele>
        <time>2010-12-27T13:02:56Z</time>
      </trkpt>
      <trkpt lat="45.62391" lon="0.65673">
        <ele>260.65454101562</ele>
        <time>2010-12-27T13:03:00Z</time>
      </trkpt>
      <trkpt lat="45.62373" lon="0.65652">
        <ele>262.09655761719</ele>
        <time>2010-12-27T13:03:04Z</time>
      </trkpt>
      <trkpt lat="45.6236" lon="0.65649">
        <ele>262.09655761719</ele>
        <time>2010-12-27T13:03:06Z</time>
      </trkpt>
      <trkpt lat="45.62298" lon="0.65619">
        <ele>262.09655761719</ele>
        <time>2010-12-27T13:03:15Z</time>
      </trkpt>
      <trkpt lat="45.62235" lon="0.65624">
        <ele>262.09655761719</ele>
        <time>2010-12-27T13:03:24Z</time>
      </trkpt>
      <trkpt lat="45.62178" lon="0.65611">
        <ele>260.17395019531</ele>
        <time>2010-12-27T13:03:32Z</time>
      </trkpt>
      <trkpt lat="45.62149" lon="0.65613">
        <ele>259.693359375</ele>
        <time>2010-12-27T13:03:36Z</time>
      </trkpt>
      <trkpt lat="45.62137" lon="0.65618">
        <ele>259.693359375</ele>
        <time>2010-12-27T13:03:38Z</time>
      </trkpt>
      <trkpt lat="45.62099" lon="0.6562">
        <ele>258.25134277344</ele>
        <time>2010-12-27T13:03:43Z</time>
      </trkpt>
      <trkpt lat="45.61996" lon="0.65572">
        <ele>258.73193359375</ele>
        <time>2010-12-27T13:03:57Z</time>
      </trkpt>
      <trkpt lat="45.61971" lon="0.65558">
        <ele>258.73193359375</ele>
        <time>2010-12-27T13:04:02Z</time>
      </trkpt>
      <trkpt lat="45.61956" lon="0.65575">
        <ele>258.25134277344</ele>
        <time>2010-12-27T13:04:07Z</time>
      </trkpt>
      <trkpt lat="45.61951" lon="0.6559">
        <ele>257.77075195312</ele>
        <time>2010-12-27T13:04:09Z</time>
      </trkpt>
      <trkpt lat="45.6194" lon="0.65613">
        <ele>255.84802246094</ele>
        <time>2010-12-27T13:04:12Z</time>
      </trkpt>
      <trkpt lat="45.61906" lon="0.65649">
        <ele>253.92541503906</ele>
        <time>2010-12-27T13:04:18Z</time>
      </trkpt>
      <trkpt lat="45.61892" lon="0.65657">
        <ele>253.44470214844</ele>
        <time>2010-12-27T13:04:20Z</time>
      </trkpt>
      <trkpt lat="45.6176" lon="0.65666">
        <ele>247.6767578125</ele>
        <time>2010-12-27T13:04:36Z</time>
      </trkpt>
      <trkpt lat="45.61752" lon="0.65666">
        <ele>247.6767578125</ele>
        <time>2010-12-27T13:04:37Z</time>
      </trkpt>
      <trkpt lat="45.61703" lon="0.65641">
        <ele>244.79284667969</ele>
        <time>2010-12-27T13:04:43Z</time>
      </trkpt>
      <trkpt lat="45.61647" lon="0.65586">
        <ele>241.42822265625</ele>
        <time>2010-12-27T13:04:50Z</time>
      </trkpt>
      <trkpt lat="45.61551" lon="0.6555">
        <ele>236.62170410156</ele>
        <time>2010-12-27T13:05:00Z</time>
      </trkpt>
      <trkpt lat="45.61489" lon="0.65524">
        <ele>234.69909667969</ele>
        <time>2010-12-27T13:05:06Z</time>
      </trkpt>
      <trkpt lat="45.61418" lon="0.65521">
        <ele>232.77648925781</ele>
        <time>2010-12-27T13:05:13Z</time>
      </trkpt>
      <trkpt lat="45.6141" lon="0.65528">
        <ele>231.81494140625</ele>
        <time>2010-12-27T13:05:14Z</time>
      </trkpt>
      <trkpt lat="45.61277" lon="0.65623">
        <ele>229.89233398438</ele>
        <time>2010-12-27T13:05:30Z</time>
      </trkpt>
      <trkpt lat="45.6119" lon="0.65705">
        <ele>229.41174316406</ele>
        <time>2010-12-27T13:05:42Z</time>
      </trkpt>
      <trkpt lat="45.61144" lon="0.65747">
        <ele>231.33435058594</ele>
        <time>2010-12-27T13:05:51Z</time>
      </trkpt>
      <trkpt lat="45.61124" lon="0.65759">
        <ele>232.29577636719</ele>
        <time>2010-12-27T13:05:55Z</time>
      </trkpt>
      <trkpt lat="45.61095" lon="0.65766">
        <ele>231.33435058594</ele>
        <time>2010-12-27T13:06:00Z</time>
      </trkpt>
      <trkpt lat="45.60996" lon="0.65736">
        <ele>231.33435058594</ele>
        <time>2010-12-27T13:06:13Z</time>
      </trkpt>
      <trkpt lat="45.60974" lon="0.65728">
        <ele>231.81494140625</ele>
        <time>2010-12-27T13:06:16Z</time>
      </trkpt>
      <trkpt lat="45.60949" lon="0.65722">
        <ele>232.29577636719</ele>
        <time>2010-12-27T13:06:20Z</time>
      </trkpt>
      <trkpt lat="45.60938" lon="0.65724">
        <ele>232.29577636719</ele>
        <time>2010-12-27T13:06:22Z</time>
      </trkpt>
      <trkpt lat="45.60909" lon="0.65736">
        <ele>234.21838378906</ele>
        <time>2010-12-27T13:06:28Z</time>
      </trkpt>
      <trkpt lat="45.60896" lon="0.65744">
        <ele>235.66027832031</ele>
        <time>2010-12-27T13:06:31Z</time>
      </trkpt>
      <trkpt lat="45.60852" lon="0.65766">
        <ele>239.98620605469</ele>
        <time>2010-12-27T13:06:42Z</time>
      </trkpt>
      <trkpt lat="45.60834" lon="0.6577">
        <ele>241.42822265625</ele>
        <time>2010-12-27T13:06:46Z</time>
      </trkpt>
      <trkpt lat="45.60793" lon="0.65771">
        <ele>243.83154296875</ele>
        <time>2010-12-27T13:06:55Z</time>
      </trkpt>
      <trkpt lat="45.6078" lon="0.65773">
        <ele>244.31225585938</ele>
        <time>2010-12-27T13:06:58Z</time>
      </trkpt>
      <trkpt lat="45.60744" lon="0.65809">
        <ele>246.23486328125</ele>
        <time>2010-12-27T13:07:09Z</time>
      </trkpt>
      <trkpt lat="45.6074" lon="0.6582">
        <ele>246.71545410156</ele>
        <time>2010-12-27T13:07:11Z</time>
      </trkpt>
      <trkpt lat="45.60737" lon="0.65831">
        <ele>246.71545410156</ele>
        <time>2010-12-27T13:07:13Z</time>
      </trkpt>
      <trkpt lat="45.60716" lon="0.65858">
        <ele>246.23486328125</ele>
        <time>2010-12-27T13:07:19Z</time>
      </trkpt>
      <trkpt lat="45.60709" lon="0.65863">
        <ele>246.23486328125</ele>
        <time>2010-12-27T13:07:21Z</time>
      </trkpt>
      <trkpt lat="45.60658" lon="0.65892">
        <ele>247.6767578125</ele>
        <time>2010-12-27T13:07:35Z</time>
      </trkpt>
      <trkpt lat="45.60621" lon="0.65942">
        <ele>253.44470214844</ele>
        <time>2010-12-27T13:07:46Z</time>
      </trkpt>
      <trkpt lat="45.60545" lon="0.65984">
        <ele>253.92541503906</ele>
        <time>2010-12-27T13:08:02Z</time>
      </trkpt>
      <trkpt lat="45.6046" lon="0.66017">
        <ele>256.32873535156</ele>
        <time>2010-12-27T13:08:18Z</time>
      </trkpt>
      <trkpt lat="45.60406" lon="0.66036">
        <ele>255.84802246094</ele>
        <time>2010-12-27T13:08:27Z</time>
      </trkpt>
      <trkpt lat="45.60372" lon="0.6608">
        <ele>255.36730957031</ele>
        <time>2010-12-27T13:08:34Z</time>
      </trkpt>
      <trkpt lat="45.60337" lon="0.66176">
        <ele>256.32873535156</ele>
        <time>2010-12-27T13:08:44Z</time>
      </trkpt>
      <trkpt lat="45.60305" lon="0.66205">
        <ele>255.84802246094</ele>
        <time>2010-12-27T13:08:49Z</time>
      </trkpt>
      <trkpt lat="45.60175" lon="0.66237">
        <ele>255.84802246094</ele>
        <time>2010-12-27T13:09:07Z</time>
      </trkpt>
      <trkpt lat="45.60091" lon="0.6631">
        <ele>254.40600585938</ele>
        <time>2010-12-27T13:09:21Z</time>
      </trkpt>
      <trkpt lat="45.60006" lon="0.66353">
        <ele>250.08020019531</ele>
        <time>2010-12-27T13:09:32Z</time>
      </trkpt>
      <trkpt lat="45.59854" lon="0.66375">
        <ele>243.35083007812</ele>
        <time>2010-12-27T13:09:47Z</time>
      </trkpt>
      <trkpt lat="45.5975" lon="0.66443">
        <ele>238.54431152344</ele>
        <time>2010-12-27T13:09:58Z</time>
      </trkpt>
      <trkpt lat="45.59704" lon="0.66474">
        <ele>236.14099121094</ele>
        <time>2010-12-27T13:10:03Z</time>
      </trkpt>
      <trkpt lat="45.59628" lon="0.66463">
        <ele>234.69909667969</ele>
        <time>2010-12-27T13:10:11Z</time>
      </trkpt>
      <trkpt lat="45.5962" lon="0.66456">
        <ele>235.1796875</ele>
        <time>2010-12-27T13:10:12Z</time>
      </trkpt>
      <trkpt lat="45.59508" lon="0.66395">
        <ele>233.25708007812</ele>
        <time>2010-12-27T13:10:25Z</time>
      </trkpt>
      <trkpt lat="45.59478" lon="0.6639">
        <ele>231.33435058594</ele>
        <time>2010-12-27T13:10:28Z</time>
      </trkpt>
      <trkpt lat="45.59342" lon="0.66311">
        <ele>225.56652832031</ele>
        <time>2010-12-27T13:10:42Z</time>
      </trkpt>
      <trkpt lat="45.59246" lon="0.66298">
        <ele>222.20178222656</ele>
        <time>2010-12-27T13:10:52Z</time>
      </trkpt>
      <trkpt lat="45.59122" lon="0.66305">
        <ele>218.83728027344</ele>
        <time>2010-12-27T13:11:05Z</time>
      </trkpt>
      <trkpt lat="45.59084" lon="0.66297">
        <ele>218.35656738281</ele>
        <time>2010-12-27T13:11:09Z</time>
      </trkpt>
      <trkpt lat="45.5899" lon="0.66302">
        <ele>213.0693359375</ele>
        <time>2010-12-27T13:11:19Z</time>
      </trkpt>
      <trkpt lat="45.58954" lon="0.66325">
        <ele>210.18542480469</ele>
        <time>2010-12-27T13:11:23Z</time>
      </trkpt>
      <trkpt lat="45.58937" lon="0.66342">
        <ele>208.74340820312</ele>
        <time>2010-12-27T13:11:25Z</time>
      </trkpt>
      <trkpt lat="45.58895" lon="0.66355">
        <ele>205.85949707031</ele>
        <time>2010-12-27T13:11:29Z</time>
      </trkpt>
      <trkpt lat="45.5884" lon="0.66342">
        <ele>202.49487304688</ele>
        <time>2010-12-27T13:11:34Z</time>
      </trkpt>
      <trkpt lat="45.5871" lon="0.66294">
        <ele>194.80432128906</ele>
        <time>2010-12-27T13:11:46Z</time>
      </trkpt>
      <trkpt lat="45.58645" lon="0.66342">
        <ele>190.958984375</ele>
        <time>2010-12-27T13:11:53Z</time>
      </trkpt>
      <trkpt lat="45.58639" lon="0.66355">
        <ele>190.47839355469</ele>
        <time>2010-12-27T13:11:54Z</time>
      </trkpt>
      <trkpt lat="45.58621" lon="0.66396">
        <ele>188.55578613281</ele>
        <time>2010-12-27T13:11:57Z</time>
      </trkpt>
      <trkpt lat="45.58556" lon="0.66452">
        <ele>186.15246582031</ele>
        <time>2010-12-27T13:12:04Z</time>
      </trkpt>
      <trkpt lat="45.58478" lon="0.66449">
        <ele>189.51696777344</ele>
        <time>2010-12-27T13:12:12Z</time>
      </trkpt>
      <trkpt lat="45.5844" lon="0.66463">
        <ele>189.99768066406</ele>
        <time>2010-12-27T13:12:17Z</time>
      </trkpt>
      <trkpt lat="45.58341" lon="0.6655">
        <ele>186.15246582031</ele>
        <time>2010-12-27T13:12:32Z</time>
      </trkpt>
      <trkpt lat="45.58314" lon="0.66573">
        <ele>184.22985839844</ele>
        <time>2010-12-27T13:12:36Z</time>
      </trkpt>
      <trkpt lat="45.58274" lon="0.66578">
        <ele>183.7490234375</ele>
        <time>2010-12-27T13:12:41Z</time>
      </trkpt>
      <trkpt lat="45.58185" lon="0.66562">
        <ele>187.59436035156</ele>
        <time>2010-12-27T13:12:53Z</time>
      </trkpt>
      <trkpt lat="45.58167" lon="0.66564">
        <ele>187.11376953125</ele>
        <time>2010-12-27T13:12:56Z</time>
      </trkpt>
      <trkpt lat="45.58118" lon="0.66595">
        <ele>184.71057128906</ele>
        <time>2010-12-27T13:13:03Z</time>
      </trkpt>
      <trkpt lat="45.58071" lon="0.66609">
        <ele>183.26843261719</ele>
        <time>2010-12-27T13:13:09Z</time>
      </trkpt>
      <trkpt lat="45.57974" lon="0.66602">
        <ele>180.865234375</ele>
        <time>2010-12-27T13:13:21Z</time>
      </trkpt>
      <trkpt lat="45.57935" lon="0.66622">
        <ele>180.38452148438</ele>
        <time>2010-12-27T13:13:26Z</time>
      </trkpt>
      <trkpt lat="45.57888" lon="0.66616">
        <ele>182.30712890625</ele>
        <time>2010-12-27T13:13:32Z</time>
      </trkpt>
      <trkpt lat="45.57825" lon="0.66575">
        <ele>184.22985839844</ele>
        <time>2010-12-27T13:13:43Z</time>
      </trkpt>
      <trkpt lat="45.57807" lon="0.66571">
        <ele>184.22985839844</ele>
        <time>2010-12-27T13:13:46Z</time>
      </trkpt>
      <trkpt lat="45.57774" lon="0.66569">
        <ele>185.19116210938</ele>
        <time>2010-12-27T13:13:51Z</time>
      </trkpt>
      <trkpt lat="45.57749" lon="0.66559">
        <ele>187.11376953125</ele>
        <time>2010-12-27T13:13:55Z</time>
      </trkpt>
      <trkpt lat="45.57726" lon="0.66542">
        <ele>188.07507324219</ele>
        <time>2010-12-27T13:14:00Z</time>
      </trkpt>
      <trkpt lat="45.57716" lon="0.66539">
        <ele>188.07507324219</ele>
        <time>2010-12-27T13:14:02Z</time>
      </trkpt>
      <trkpt lat="45.57697" lon="0.66541">
        <ele>189.99768066406</ele>
        <time>2010-12-27T13:14:06Z</time>
      </trkpt>
      <trkpt lat="45.5764" lon="0.66579">
        <ele>193.84301757812</ele>
        <time>2010-12-27T13:14:21Z</time>
      </trkpt>
      <trkpt lat="45.57622" lon="0.66592">
        <ele>193.84301757812</ele>
        <time>2010-12-27T13:14:25Z</time>
      </trkpt>
      <trkpt lat="45.57576" lon="0.66606">
        <ele>190.958984375</ele>
        <time>2010-12-27T13:14:33Z</time>
      </trkpt>
      <trkpt lat="45.57474" lon="0.66567">
        <ele>186.63317871094</ele>
        <time>2010-12-27T13:14:46Z</time>
      </trkpt>
      <trkpt lat="45.57372" lon="0.66542">
        <ele>189.99768066406</ele>
        <time>2010-12-27T13:14:58Z</time>
      </trkpt>
      <trkpt lat="45.57322" lon="0.6652">
        <ele>194.32373046875</ele>
        <time>2010-12-27T13:15:09Z</time>
      </trkpt>
      <trkpt lat="45.5728" lon="0.66472">
        <ele>198.64953613281</ele>
        <time>2010-12-27T13:15:23Z</time>
      </trkpt>
      <trkpt lat="45.57275" lon="0.66463">
        <ele>199.61083984375</ele>
        <time>2010-12-27T13:15:25Z</time>
      </trkpt>
      <trkpt lat="45.57223" lon="0.66396">
        <ele>204.41748046875</ele>
        <time>2010-12-27T13:15:43Z</time>
      </trkpt>
      <trkpt lat="45.57171" lon="0.66368">
        <ele>206.82067871094</ele>
        <time>2010-12-27T13:15:59Z</time>
      </trkpt>
      <trkpt lat="45.57118" lon="0.66351">
        <ele>211.14672851562</ele>
        <time>2010-12-27T13:16:15Z</time>
      </trkpt>
      <trkpt lat="45.57074" lon="0.66328">
        <ele>215.95324707031</ele>
        <time>2010-12-27T13:16:30Z</time>
      </trkpt>
      <trkpt lat="45.57017" lon="0.66272">
        <ele>224.60522460938</ele>
        <time>2010-12-27T13:16:51Z</time>
      </trkpt>
      <trkpt lat="45.56987" lon="0.66241">
        <ele>231.33435058594</ele>
        <time>2010-12-27T13:17:04Z</time>
      </trkpt>
      <trkpt lat="45.56961" lon="0.6621">
        <ele>231.81494140625</ele>
        <time>2010-12-27T13:17:16Z</time>
      </trkpt>
      <trkpt lat="45.56924" lon="0.66178">
        <ele>235.66027832031</ele>
        <time>2010-12-27T13:17:29Z</time>
      </trkpt>
      <trkpt lat="45.56879" lon="0.66162">
        <ele>237.58288574219</ele>
        <time>2010-12-27T13:17:43Z</time>
      </trkpt>
      <trkpt lat="45.5686" lon="0.66154">
        <ele>239.98620605469</ele>
        <time>2010-12-27T13:17:49Z</time>
      </trkpt>
      <trkpt lat="45.56807" lon="0.66165">
        <ele>239.50549316406</ele>
        <time>2010-12-27T13:18:02Z</time>
      </trkpt>
      <trkpt lat="45.56742" lon="0.66181">
        <ele>240.46704101562</ele>
        <time>2010-12-27T13:18:19Z</time>
      </trkpt>
      <trkpt lat="45.56701" lon="0.66191">
        <ele>244.31225585938</ele>
        <time>2010-12-27T13:18:30Z</time>
      </trkpt>
      <trkpt lat="45.56689" lon="0.66192">
        <ele>245.75415039062</ele>
        <time>2010-12-27T13:18:33Z</time>
      </trkpt>
      <trkpt lat="45.56673" lon="0.66189">
        <ele>246.71545410156</ele>
        <time>2010-12-27T13:18:37Z</time>
      </trkpt>
      <trkpt lat="45.56657" lon="0.66188">
        <ele>247.6767578125</ele>
        <time>2010-12-27T13:18:40Z</time>
      </trkpt>
      <trkpt lat="45.56639" lon="0.66187">
        <ele>247.6767578125</ele>
        <time>2010-12-27T13:18:43Z</time>
      </trkpt>
      <trkpt lat="45.56611" lon="0.66185">
        <ele>248.63818359375</ele>
        <time>2010-12-27T13:18:48Z</time>
      </trkpt>
      <trkpt lat="45.56542" lon="0.66172">
        <ele>253.44470214844</ele>
        <time>2010-12-27T13:18:59Z</time>
      </trkpt>
      <trkpt lat="45.56422" lon="0.66161">
        <ele>252.4833984375</ele>
        <time>2010-12-27T13:19:20Z</time>
      </trkpt>
      <trkpt lat="45.56411" lon="0.66157">
        <ele>252.4833984375</ele>
        <time>2010-12-27T13:19:22Z</time>
      </trkpt>
      <trkpt lat="45.56368" lon="0.6617">
        <ele>252.4833984375</ele>
        <time>2010-12-27T13:19:30Z</time>
      </trkpt>
      <trkpt lat="45.56341" lon="0.66216">
        <ele>252.4833984375</ele>
        <time>2010-12-27T13:19:38Z</time>
      </trkpt>
      <trkpt lat="45.56332" lon="0.6621">
        <ele>254.88659667969</ele>
        <time>2010-12-27T13:19:44Z</time>
      </trkpt>
      <trkpt lat="45.56355" lon="0.66148">
        <ele>260.65454101562</ele>
        <time>2010-12-27T13:19:57Z</time>
      </trkpt>
      <trkpt lat="45.56385" lon="0.66064">
        <ele>264.49987792969</ele>
        <time>2010-12-27T13:20:13Z</time>
      </trkpt>
      <trkpt lat="45.56396" lon="0.66035">
        <ele>267.86450195312</ele>
        <time>2010-12-27T13:20:19Z</time>
      </trkpt>
      <trkpt lat="45.56388" lon="0.66026">
        <ele>268.34509277344</ele>
        <time>2010-12-27T13:20:24Z</time>
      </trkpt>
      <trkpt lat="45.5636" lon="0.66033">
        <ele>267.38391113281</ele>
        <time>2010-12-27T13:20:31Z</time>
      </trkpt>
      <trkpt lat="45.56281" lon="0.66051">
        <ele>269.787109375</ele>
        <time>2010-12-27T13:20:48Z</time>
      </trkpt>
      <trkpt lat="45.56212" lon="0.66087">
        <ele>267.38391113281</ele>
        <time>2010-12-27T13:21:02Z</time>
      </trkpt>
      <trkpt lat="45.56176" lon="0.66105">
        <ele>268.34509277344</ele>
        <time>2010-12-27T13:21:09Z</time>
      </trkpt>
      <trkpt lat="45.56065" lon="0.6615">
        <ele>271.70971679688</ele>
        <time>2010-12-27T13:21:29Z</time>
      </trkpt>
      <trkpt lat="45.5606" lon="0.66151">
        <ele>272.1904296875</ele>
        <time>2010-12-27T13:21:30Z</time>
      </trkpt>
      <trkpt lat="45.56046" lon="0.66157">
        <ele>273.63244628906</ele>
        <time>2010-12-27T13:21:33Z</time>
      </trkpt>
      <trkpt lat="45.56034" lon="0.66167">
        <ele>273.63244628906</ele>
        <time>2010-12-27T13:21:36Z</time>
      </trkpt>
      <trkpt lat="45.55958" lon="0.66234">
        <ele>274.11303710938</ele>
        <time>2010-12-27T13:21:53Z</time>
      </trkpt>
      <trkpt lat="45.5584" lon="0.66357">
        <ele>276.51635742188</ele>
        <time>2010-12-27T13:22:17Z</time>
      </trkpt>
      <trkpt lat="45.55728" lon="0.66472">
        <ele>277.95825195312</ele>
        <time>2010-12-27T13:22:38Z</time>
      </trkpt>
      <trkpt lat="45.55617" lon="0.66585">
        <ele>282.28430175781</ele>
        <time>2010-12-27T13:22:59Z</time>
      </trkpt>
      <trkpt lat="45.55485" lon="0.6669">
        <ele>282.28430175781</ele>
        <time>2010-12-27T13:23:23Z</time>
      </trkpt>
      <trkpt lat="45.55393" lon="0.66719">
        <ele>280.84240722656</ele>
        <time>2010-12-27T13:23:37Z</time>
      </trkpt>
      <trkpt lat="45.55266" lon="0.66706">
        <ele>281.80358886719</ele>
        <time>2010-12-27T13:23:54Z</time>
      </trkpt>
      <trkpt lat="45.5514" lon="0.66692">
        <ele>284.20690917969</ele>
        <time>2010-12-27T13:24:12Z</time>
      </trkpt>
      <trkpt lat="45.55005" lon="0.66657">
        <ele>287.57141113281</ele>
        <time>2010-12-27T13:24:33Z</time>
      </trkpt>
      <trkpt lat="45.54883" lon="0.66643">
        <ele>286.61022949219</ele>
        <time>2010-12-27T13:24:52Z</time>
      </trkpt>
      <trkpt lat="45.54773" lon="0.66657">
        <ele>282.28430175781</ele>
        <time>2010-12-27T13:25:07Z</time>
      </trkpt>
      <trkpt lat="45.54675" lon="0.66669">
        <ele>280.84240722656</ele>
        <time>2010-12-27T13:25:20Z</time>
      </trkpt>
      <trkpt lat="45.54599" lon="0.66651">
        <ele>281.32299804688</ele>
        <time>2010-12-27T13:25:31Z</time>
      </trkpt>
      <trkpt lat="45.54549" lon="0.66617">
        <ele>282.28430175781</ele>
        <time>2010-12-27T13:25:42Z</time>
      </trkpt>
      <trkpt lat="45.54535" lon="0.66621">
        <ele>281.80358886719</ele>
        <time>2010-12-27T13:25:49Z</time>
      </trkpt>
      <trkpt lat="45.54535" lon="0.66626">
        <ele>282.28430175781</ele>
        <time>2010-12-27T13:25:51Z</time>
      </trkpt>
      <trkpt lat="45.54533" lon="0.66629">
        <ele>282.28430175781</ele>
        <time>2010-12-27T13:26:15Z</time>
      </trkpt>
      <trkpt lat="45.54532" lon="0.6663">
        <ele>282.28430175781</ele>
        <time>2010-12-27T13:26:31Z</time>
      </trkpt>
      <trkpt lat="45.54532" lon="0.6663">
        <ele>282.76501464844</ele>
        <time>2010-12-27T13:29:11Z</time>
      </trkpt>
    </trkseg>
  </trk>
</gpx>